Observation data for Panhandle on 12/09/2018      Previous  Date  Next       Current Mesonet Observations  Soil Data  Daily Summary Page  Observations in Plain Language
KPA1 090600Z 04005KT M08/M10 A303 RMK A01 T10801100  RH  086%=      5-min Rain = 0
KPA1 090601Z 04005KT M08/M10 A303 RMK A01 T10801100  RH  086%=      5-min Rain = 0
KPA1 090602Z 04004KT M08/M10 A303 RMK A01 T10811101  RH  086%=      5-min Rain = 0
KPA1 090603Z 04004KT M08/M10 A303 RMK A01 T10811101  RH  086%=      5-min Rain = 0
KPA1 090604Z 04004KT M08/M10 A303 RMK A01 T10811100  RH  086%=      5-min Rain = 0
KPA1 090605Z 04004KT M08/M10 A303 RMK A01 T10811099  RH  086%=      5-min Rain = 0
KPA1 090606Z 03004KT M08/M10 A303 RMK A01 T10791098  RH  086%=      5-min Rain = 0
KPA1 090607Z 03004KT M08/M10 A303 RMK A01 T10781097  RH  086%=      5-min Rain = 0
KPA1 090608Z 03004KT M08/M10 A303 RMK A01 T10761097  RH  085%=      5-min Rain = 0
KPA1 090609Z 03004KT M07/M10 A303 RMK A01 T10741095  RH  085%=      5-min Rain = 0
KPA1 090610Z 02004KT M07/M10 A303 RMK A01 T10731095  RH  084%=      5-min Rain = 0
KPA1 090611Z 02004KT M07/M10 A303 RMK A01 T10711095  RH  083%=      5-min Rain = 0
KPA1 090612Z 02003KT M07/M10 A303 RMK A01 T10701095  RH  082%=      5-min Rain = 0
KPA1 090613Z 02003KT M07/M10 A303 RMK A01 T10691095  RH  082%=      5-min Rain = 0
KPA1 090614Z 02003KT M07/M10 A303 RMK A01 T10671095  RH  081%=      5-min Rain = 0
KPA1 090615Z 03003KT M07/M10 A303 RMK A01 T10671096  RH  080%=      5-min Rain = 0
KPA1 090616Z 03003KT M07/M10 A303 RMK A01 T10671097  RH  079%=      5-min Rain = 0
KPA1 090617Z 03003KT M07/M10 A303 RMK A01 T10671098  RH  078%=      5-min Rain = 0
KPA1 090618Z 03003KT M07/M10 A303 RMK A01 T10661099  RH  078%=      5-min Rain = 0
KPA1 090619Z 03003KT M07/M10 A303 RMK A01 T10661099  RH  077%=      5-min Rain = 0
KPA1 090620Z 03003KT M07/M10 A303 RMK A01 T10651100  RH  076%=      5-min Rain = 0
KPA1 090621Z 03003KT M07/M10 A303 RMK A01 T10651100  RH  076%=      5-min Rain = 0
KPA1 090622Z 03003KT M06/M10 A303 RMK A01 T10641099  RH  076%=      5-min Rain = 0
KPA1 090623Z 03003KT M06/M10 A303 RMK A01 T10641100  RH  076%=      5-min Rain = 0
KPA1 090624Z 02003KT M06/M10 A303 RMK A01 T10641100  RH  076%=      5-min Rain = 0
KPA1 090625Z 02003KT M06/M10 A303 RMK A01 T10641100  RH  076%=      5-min Rain = 0
KPA1 090626Z 02002KT M06/M10 A303 RMK A01 T10641099  RH  076%=      5-min Rain = 0
KPA1 090627Z 02002KT M07/M10 A3031 RMK A01 T10651099  RH  077%=      5-min Rain = 0
KPA1 090628Z 01001KT M07/M10 A3031 RMK A01 T10651098  RH  077%=      5-min Rain = 0
KPA1 090629Z 26000KT M07/M11 A3031 RMK A01 T10701106  RH  075%=      5-min Rain = 0
KPA1 090630Z 25001KT M08/M12 A3031 RMK A01 T10791117  RH  074%=      5-min Rain = 0
KPA1 090631Z 25001KT M08/M12 A3031 RMK A01 T10841117  RH  077%=      5-min Rain = 0
KPA1 090632Z 26000KT M09/M11 A3031 RMK A01 T10861113  RH  081%=      5-min Rain = 0
KPA1 090633Z 26001KT M09/M11 A3031 RMK A01 T10871112  RH  082%=      5-min Rain = 0
KPA1 090634Z 24002KT M09/M11 A3031 RMK A01 T10881110  RH  084%=      5-min Rain = 0
KPA1 090635Z 24003KT M09/M10 A3031 RMK A01 T10851104  RH  086%=      5-min Rain = 0
KPA1 090636Z 24003KT M09/M10 A3031 RMK A01 T10851104  RH  086%=      5-min Rain = 0
KPA1 090637Z 24003KT M09/M11 A3031 RMK A01 T10871108  RH  085%=      5-min Rain = 0
KPA1 090638Z 24003KT M09/M11 A3031 RMK A01 T10871108  RH  085%=      5-min Rain = 0
KPA1 090639Z 25003KT M09/M11 A3031 RMK A01 T10881108  RH  085%=      5-min Rain = 0
KPA1 090640Z 25002KT M09/M11 A3031 RMK A01 T10861106  RH  086%=      5-min Rain = 0
KPA1 090641Z 26002KT M08/M10 A3031 RMK A01 T10841103  RH  086%=      5-min Rain = 0
KPA1 090642Z 26002KT M08/M10 A3031 RMK A01 T10821101  RH  086%=      5-min Rain = 0
KPA1 090643Z 26002KT M08/M10 A3031 RMK A01 T10811102  RH  085%=      5-min Rain = 0
KPA1 090644Z 27002KT M08/M10 A3031 RMK A01 T10811102  RH  085%=      5-min Rain = 0
KPA1 090645Z 27001KT M08/M10 A3031 RMK A01 T10811102  RH  085%=      5-min Rain = 0
KPA1 090646Z 27001KT M08/M10 A3031 RMK A01 T10811102  RH  085%=      5-min Rain = 0
KPA1 090647Z 27001KT M08/M10 A3031 RMK A01 T10811102  RH  085%=      5-min Rain = 0
KPA1 090648Z 27001KT M08/M10 A3031 RMK A01 T10821103  RH  085%=      5-min Rain = 0
KPA1 090649Z 27001KT M08/M10 A3031 RMK A01 T10821104  RH  085%=      5-min Rain = 0
KPA1 090650Z 27001KT M08/M10 A3031 RMK A01 T10821103  RH  085%=      5-min Rain = 0
KPA1 090651Z 27001KT M08/M10 A3031 RMK A01 T10821102  RH  085%=      5-min Rain = 0
KPA1 090652Z 27001KT M08/M10 A3031 RMK A01 T10821102  RH  086%=      5-min Rain = 0
KPA1 090653Z 27001KT M08/M10 A3031 RMK A01 T10811100  RH  086%=      5-min Rain = 0
KPA1 090654Z 27001KT M08/M10 A3031 RMK A01 T10811100  RH  086%=      5-min Rain = 0
KPA1 090655Z 27001KT M08/M10 A3031 RMK A01 T10811101  RH  086%=      5-min Rain = 0
KPA1 090656Z 27001KT M08/M10 A3031 RMK A01 T10811101  RH  086%=      5-min Rain = 0
KPA1 090657Z 27001KT M08/M10 A3031 RMK A01 T10801099  RH  086%=      5-min Rain = 0
KPA1 090658Z 27001KT M08/M10 A3031 RMK A01 T10791098  RH  086%=      5-min Rain = 0
KPA1 090659Z 27001KT M08/M10 A3031 RMK A01 T10791098  RH  086%=      5-min Rain = 0
KPA1 090700Z 28002KT M08/M10 A3031 RMK A01 T10791099  RH  086%=      5-min Rain = 0
KPA1 090701Z 28002KT M08/M10 A3031 RMK A01 T10791099  RH  085%=      5-min Rain = 0
KPA1 090702Z 29001KT M08/M10 A3031 RMK A01 T10791100  RH  085%=      5-min Rain = 0
KPA1 090703Z 30002KT M08/M10 A3031 RMK A01 T10801100  RH  085%=      5-min Rain = 0
KPA1 090704Z 30002KT M08/M10 A3031 RMK A01 T10791099  RH  085%=      5-min Rain = 0
KPA1 090705Z 31002KT M08/M10 A3031 RMK A01 T10771097  RH  085%=      5-min Rain = 0
KPA1 090706Z 31002KT M08/M10 A3031 RMK A01 T10761096  RH  085%=      5-min Rain = 0
KPA1 090707Z 31002KT M07/M10 A3031 RMK A01 T10741096  RH  084%=      5-min Rain = 0
KPA1 090708Z 31001KT M07/M10 A3031 RMK A01 T10731096  RH  084%=      5-min Rain = 0
KPA1 090709Z 31001KT M07/M10 A3031 RMK A01 T10731096  RH  083%=      5-min Rain = 0
KPA1 090710Z 33001KT M07/M10 A3031 RMK A01 T10721096  RH  083%=      5-min Rain = 0
KPA1 090711Z 33001KT M07/M10 A3031 RMK A01 T10721097  RH  083%=      5-min Rain = 0
KPA1 090712Z 32002KT M07/M10 A3031 RMK A01 T10721097  RH  082%=      5-min Rain = 0
KPA1 090713Z 29003KT M07/M10 A3031 RMK A01 T10721097  RH  082%=      5-min Rain = 0
KPA1 090714Z 28003KT M07/M10 A3031 RMK A01 T10711097  RH  082%=      5-min Rain = 0
KPA1 090715Z 28004KT M07/M09 A3031 RMK A01 T10681093  RH  082%=      5-min Rain = 0
KPA1 090716Z 28004KT M07/M09 A3031 RMK A01 T10681094  RH  082%=      5-min Rain = 0
KPA1 090717Z 28004KT M07/M10 A3031 RMK A01 T10711099  RH  081%=      5-min Rain = 0
KPA1 090718Z 28004KT M07/M10 A3031 RMK A01 T10721098  RH  082%=      5-min Rain = 0
KPA1 090719Z 29004KT M07/M10 A3031 RMK A01 T10721098  RH  082%=      5-min Rain = 0
KPA1 090720Z 29004KT M07/M10 A3031 RMK A01 T10731099  RH  082%=      5-min Rain = 0
KPA1 090721Z 29004KT M07/M10 A3031 RMK A01 T10741100  RH  082%=      5-min Rain = 0
KPA1 090722Z 29004KT M08/M10 A3031 RMK A01 T10751102  RH  082%=      5-min Rain = 0
KPA1 090723Z 30004KT M08/M10 A3031 RMK A01 T10771103  RH  082%=      5-min Rain = 0
KPA1 090724Z 31003KT M08/M10 A303 RMK A01 T10771103  RH  082%=      5-min Rain = 0
KPA1 090725Z 31003KT M08/M10 A303 RMK A01 T10781102  RH  083%=      5-min Rain = 0
KPA1 090726Z 31004KT M08/M10 A303 RMK A01 T10781099  RH  085%=      5-min Rain = 0
KPA1 090727Z 31004KT M08/M10 A303 RMK A01 T10771097  RH  085%=      5-min Rain = 0
KPA1 090728Z 30004KT M08/M10 A303 RMK A01 T10761096  RH  086%=      5-min Rain = 0
KPA1 090729Z 30004KT M08/M09 A303 RMK A01 T10751094  RH  086%=      5-min Rain = 0
KPA1 090730Z 29004KT M07/M09 A303 RMK A01 T10741093  RH  086%=      5-min Rain = 0
KPA1 090731Z 29004KT M07/M09 A303 RMK A01 T10721092  RH  086%=      5-min Rain = 0
KPA1 090732Z 29004KT M07/M09 A303 RMK A01 T10711092  RH  085%=      5-min Rain = 0
KPA1 090733Z 29004KT M07/M09 A303 RMK A01 T10711093  RH  084%=      5-min Rain = 0
KPA1 090734Z 31004KT M07/M10 A303 RMK A01 T10711095  RH  083%=      5-min Rain = 0
KPA1 090735Z 33003KT M07/M10 A303 RMK A01 T10721097  RH  083%=      5-min Rain = 0
KPA1 090736Z 33003KT M07/M10 A303 RMK A01 T10731098  RH  083%=      5-min Rain = 0
KPA1 090737Z 32003KT M07/M10 A303 RMK A01 T10731097  RH  083%=      5-min Rain = 0
KPA1 090738Z 31003KT M07/M10 A303 RMK A01 T10741097  RH  084%=      5-min Rain = 0
KPA1 090739Z 30003KT M07/M10 A303 RMK A01 T10731095  RH  084%=      5-min Rain = 0
KPA1 090740Z 30004KT M07/M09 A303 RMK A01 T10721094  RH  084%=      5-min Rain = 0
KPA1 090741Z 30005KT M07/M10 A303 RMK A01 T10721095  RH  083%=      5-min Rain = 0
KPA1 090742Z 30005KT M07/M09 A303 RMK A01 T10701094  RH  083%=      5-min Rain = 0
KPA1 090743Z 30005KT M07/M09 A303 RMK A01 T10691093  RH  083%=      5-min Rain = 0
KPA1 090744Z 30005KT M07/M09 A303 RMK A01 T10691094  RH  083%=      5-min Rain = 0
KPA1 090745Z 30006KT M07/M10 A303 RMK A01 T10701095  RH  082%=      5-min Rain = 0
KPA1 090746Z 30006KT M07/M10 A303 RMK A01 T10711096  RH  083%=      5-min Rain = 0
KPA1 090747Z 30006KT M07/M10 A303 RMK A01 T10721095  RH  083%=      5-min Rain = 0
KPA1 090748Z 30006KT M07/M09 A303 RMK A01 T10711094  RH  084%=      5-min Rain = 0
KPA1 090749Z 31006KT M07/M09 A303 RMK A01 T10701091  RH  085%=      5-min Rain = 0
KPA1 090750Z 31005KT M07/M09 A303 RMK A01 T10681090  RH  085%=      5-min Rain = 0
KPA1 090751Z 31005KT M07/M09 A303 RMK A01 T10671090  RH  084%=      5-min Rain = 0
KPA1 090752Z 31005KT M07/M09 A303 RMK A01 T10661090  RH  083%=      5-min Rain = 0
KPA1 090753Z 30006KT M07/M09 A303 RMK A01 T10661091  RH  083%=      5-min Rain = 0
KPA1 090754Z 30006KT M07/M09 A303 RMK A01 T10661091  RH  083%=      5-min Rain = 0
KPA1 090755Z 31006KT M07/M09 A303 RMK A01 T10681092  RH  083%=      5-min Rain = 0
KPA1 090756Z 31006KT M07/M09 A303 RMK A01 T10691093  RH  083%=      5-min Rain = 0
KPA1 090757Z 31005KT M07/M09 A303 RMK A01 T10691093  RH  083%=      5-min Rain = 0
KPA1 090758Z 31005KT M07/M09 A303 RMK A01 T10691093  RH  083%=      5-min Rain = 0
KPA1 090759Z 31005KT M07/M09 A3029 RMK A01 T10691093  RH  083%=      5-min Rain = 0
KPA1 090800Z 31005KT M07/M09 A3029 RMK A01 T10691093  RH  083%=      5-min Rain = 0
KPA1 090801Z 32004KT M07/M09 A3029 RMK A01 T10691093  RH  083%=      5-min Rain = 0
KPA1 090802Z 32004KT M07/M09 A3029 RMK A01 T10691093  RH  083%=      5-min Rain = 0
KPA1 090803Z 32004KT M07/M09 A3029 RMK A01 T10701094  RH  083%=      5-min Rain = 0
KPA1 090804Z 32003KT M07/M10 A3029 RMK A01 T10711095  RH  083%=      5-min Rain = 0
KPA1 090805Z 32003KT M07/M10 A3029 RMK A01 T10711095  RH  083%=      5-min Rain = 0
KPA1 090806Z 32003KT M07/M10 A3029 RMK A01 T10711096  RH  083%=      5-min Rain = 0
KPA1 090807Z 32003KT M07/M10 A3029 RMK A01 T10721096  RH  083%=      5-min Rain = 0
KPA1 090808Z 32003KT M07/M10 A3029 RMK A01 T10721096  RH  083%=      5-min Rain = 0
KPA1 090809Z 32003KT M07/M10 A3029 RMK A01 T10721097  RH  082%=      5-min Rain = 0
KPA1 090810Z 32003KT M07/M10 A303 RMK A01 T10721097  RH  082%=      5-min Rain = 0
KPA1 090811Z 32004KT M07/M10 A303 RMK A01 T10731098  RH  082%=      5-min Rain = 0
KPA1 090812Z 32004KT M07/M10 A303 RMK A01 T10731098  RH  083%=      5-min Rain = 0
KPA1 090813Z 32004KT M07/M10 A303 RMK A01 T10721097  RH  083%=      5-min Rain = 0
KPA1 090814Z 32004KT M07/M10 A303 RMK A01 T10701096  RH  082%=      5-min Rain = 0
KPA1 090815Z 32004KT M07/M10 A303 RMK A01 T10701098  RH  080%=      5-min Rain = 0
KPA1 090816Z 32004KT M07/M10 A303 RMK A01 T10701098  RH  080%=      5-min Rain = 0
KPA1 090817Z 32004KT M07/M10 A303 RMK A01 T10701097  RH  081%=      5-min Rain = 0
KPA1 090818Z 32004KT M07/M10 A303 RMK A01 T10701096  RH  082%=      5-min Rain = 0
KPA1 090819Z 32004KT M07/M10 A303 RMK A01 T10701096  RH  082%=      5-min Rain = 0
KPA1 090820Z 32004KT M07/M10 A303 RMK A01 T10711097  RH  082%=      5-min Rain = 0
KPA1 090821Z 32004KT M07/M10 A303 RMK A01 T10721098  RH  082%=      5-min Rain = 0
KPA1 090822Z 32004KT M07/M10 A303 RMK A01 T10731099  RH  082%=      5-min Rain = 0
KPA1 090823Z 33005KT M07/M10 A303 RMK A01 T10741099  RH  082%=      5-min Rain = 0
KPA1 090824Z 32005KT M07/M10 A303 RMK A01 T10741099  RH  083%=      5-min Rain = 0
KPA1 090825Z 31005KT M07/M10 A303 RMK A01 T10741099  RH  082%=      5-min Rain = 0
KPA1 090826Z 31005KT M07/M10 A303 RMK A01 T10711097  RH  081%=      5-min Rain = 0
KPA1 090827Z 31005KT M07/M10 A303 RMK A01 T10701097  RH  081%=      5-min Rain = 0
KPA1 090828Z 31005KT M07/M10 A303 RMK A01 T10701097  RH  081%=      5-min Rain = 0
KPA1 090829Z 31006KT M07/M10 A303 RMK A01 T10721098  RH  082%=      5-min Rain = 0
KPA1 090830Z 31006KT M07/M10 A3031 RMK A01 T10731097  RH  083%=      5-min Rain = 0
KPA1 090831Z 30006KT M07/M10 A3031 RMK A01 T10731097  RH  084%=      5-min Rain = 0
KPA1 090832Z 30006KT M07/M10 A3031 RMK A01 T10741096  RH  084%=      5-min Rain = 0
KPA1 090833Z 30007KT M07/M10 A3031 RMK A01 T10731095  RH  084%=      5-min Rain = 0
KPA1 090834Z 30007KT M07/M09 A3031 RMK A01 T10731094  RH  084%=      5-min Rain = 0
KPA1 090835Z 30007KT M07/M10 A303 RMK A01 T10731095  RH  084%=      5-min Rain = 0
KPA1 090836Z 30007KT M07/M10 A303 RMK A01 T10731095  RH  084%=      5-min Rain = 0
KPA1 090837Z 30007KT M07/M09 A303 RMK A01 T10721094  RH  084%=      5-min Rain = 0
KPA1 090838Z 30006KT M07/M09 A303 RMK A01 T10711094  RH  084%=      5-min Rain = 0
KPA1 090839Z 30006KT M07/M09 A303 RMK A01 T10711094  RH  083%=      5-min Rain = 0
KPA1 090840Z 30006KT M07/M10 A3031 RMK A01 T10711095  RH  083%=      5-min Rain = 0
KPA1 090841Z 30006KT M07/M10 A303 RMK A01 T10701095  RH  082%=      5-min Rain = 0
KPA1 090842Z 30006KT M07/M10 A303 RMK A01 T10711096  RH  082%=      5-min Rain = 0
KPA1 090843Z 30006KT M07/M10 A303 RMK A01 T10721097  RH  082%=      5-min Rain = 0
KPA1 090844Z 30005KT M07/M10 A303 RMK A01 T10721098  RH  082%=      5-min Rain = 0
KPA1 090845Z 30004KT M07/M10 A303 RMK A01 T10731098  RH  082%=      5-min Rain = 0
KPA1 090846Z 31004KT M07/M10 A303 RMK A01 T10731098  RH  083%=      5-min Rain = 0
KPA1 090847Z 32004KT M07/M10 A303 RMK A01 T10731098  RH  083%=      5-min Rain = 0
KPA1 090848Z 32004KT M07/M10 A303 RMK A01 T10731099  RH  082%=      5-min Rain = 0
KPA1 090849Z 32003KT M07/M10 A303 RMK A01 T10731099  RH  082%=      5-min Rain = 0
KPA1 090850Z 33003KT M07/M10 A303 RMK A01 T10731099  RH  081%=      5-min Rain = 0
KPA1 090851Z 32003KT M07/M10 A303 RMK A01 T10731100  RH  081%=      5-min Rain = 0
KPA1 090852Z 32003KT M07/M10 A303 RMK A01 T10731100  RH  081%=      5-min Rain = 0
KPA1 090853Z 32003KT M07/M10 A303 RMK A01 T10731100  RH  081%=      5-min Rain = 0
KPA1 090854Z 33002KT M07/M10 A303 RMK A01 T10741101  RH  081%=      5-min Rain = 0
KPA1 090855Z 33003KT M07/M10 A303 RMK A01 T10741101  RH  081%=      5-min Rain = 0
KPA1 090856Z 33003KT M07/M10 A303 RMK A01 T10741100  RH  082%=      5-min Rain = 0
KPA1 090857Z 33003KT M08/M10 A303 RMK A01 T10751100  RH  082%=      5-min Rain = 0
KPA1 090858Z 33003KT M07/M10 A303 RMK A01 T10741099  RH  083%=      5-min Rain = 0
KPA1 090859Z 33003KT M07/M10 A303 RMK A01 T10731098  RH  083%=      5-min Rain = 0
KPA1 090900Z 32003KT M07/M10 A303 RMK A01 T10721097  RH  082%=      5-min Rain = 0
KPA1 090901Z 32003KT M07/M10 A303 RMK A01 T10721098  RH  081%=      5-min Rain = 0
KPA1 090902Z 32003KT M07/M10 A303 RMK A01 T10721099  RH  081%=      5-min Rain = 0
KPA1 090903Z 32003KT M07/M10 A303 RMK A01 T10731101  RH  081%=      5-min Rain = 0
KPA1 090904Z 32004KT M08/M10 A303 RMK A01 T10751102  RH  081%=      5-min Rain = 0
KPA1 090905Z 32004KT M08/M10 A303 RMK A01 T10751102  RH  081%=      5-min Rain = 0
KPA1 090906Z 32004KT M08/M10 A303 RMK A01 T10751102  RH  081%=      5-min Rain = 0
KPA1 090907Z 32004KT M08/M10 A303 RMK A01 T10751102  RH  081%=      5-min Rain = 0
KPA1 090908Z 32005KT M07/M10 A303 RMK A01 T10731102  RH  080%=      5-min Rain = 0
KPA1 090909Z 32005KT M07/M10 A303 RMK A01 T10711101  RH  080%=      5-min Rain = 0
KPA1 090910Z 31005KT M07/M10 A303 RMK A01 T10701100  RH  079%=      5-min Rain = 0
KPA1 090911Z 31005KT M07/M10 A3031 RMK A01 T10691100  RH  079%=      5-min Rain = 0
KPA1 090912Z 31005KT M07/M10 A3031 RMK A01 T10701101  RH  079%=      5-min Rain = 0
KPA1 090913Z 31005KT M07/M10 A3031 RMK A01 T10721102  RH  079%=      5-min Rain = 0
KPA1 090914Z 31005KT M07/M10 A3031 RMK A01 T10731103  RH  080%=      5-min Rain = 0
KPA1 090915Z 31005KT M07/M10 A3031 RMK A01 T10741103  RH  080%=      5-min Rain = 0
KPA1 090916Z 32004KT M08/M10 A3031 RMK A01 T10751102  RH  081%=      5-min Rain = 0
KPA1 090917Z 33004KT M08/M10 A3031 RMK A01 T10751101  RH  082%=      5-min Rain = 0
KPA1 090918Z 32003KT M08/M10 A3031 RMK A01 T10751101  RH  082%=      5-min Rain = 0
KPA1 090919Z 32003KT M07/M10 A3031 RMK A01 T10741101  RH  081%=      5-min Rain = 0
KPA1 090920Z 32004KT M07/M10 A3031 RMK A01 T10741102  RH  081%=      5-min Rain = 0
KPA1 090921Z 32004KT M07/M10 A3031 RMK A01 T10741102  RH  081%=      5-min Rain = 0
KPA1 090922Z 32003KT M07/M10 A3031 RMK A01 T10741103  RH  080%=      5-min Rain = 0
KPA1 090923Z 32003KT M07/M10 A3031 RMK A01 T10731102  RH  080%=      5-min Rain = 0
KPA1 090924Z 33003KT M07/M10 A3031 RMK A01 T10731102  RH  080%=      5-min Rain = 0
KPA1 090925Z 33003KT M07/M10 A303 RMK A01 T10721102  RH  079%=      5-min Rain = 0
KPA1 090926Z 33003KT M07/M10 A303 RMK A01 T10711102  RH  079%=      5-min Rain = 0
KPA1 090927Z 32003KT M07/M10 A303 RMK A01 T10721103  RH  079%=      5-min Rain = 0
KPA1 090928Z 31003KT M07/M10 A3031 RMK A01 T10731104  RH  079%=      5-min Rain = 0
KPA1 090929Z 31003KT M07/M10 A3031 RMK A01 T10741104  RH  079%=      5-min Rain = 0
KPA1 090930Z 30002KT M07/M10 A3031 RMK A01 T10741103  RH  079%=      5-min Rain = 0
KPA1 090931Z 29003KT M07/M10 A3031 RMK A01 T10731103  RH  079%=      5-min Rain = 0
KPA1 090932Z 29003KT M07/M10 A3031 RMK A01 T10731104  RH  079%=      5-min Rain = 0
KPA1 090933Z 29003KT M07/M10 A3031 RMK A01 T10731104  RH  079%=      5-min Rain = 0
KPA1 090934Z 29003KT M07/M10 A3031 RMK A01 T10731104  RH  079%=      5-min Rain = 0
KPA1 090935Z 30004KT M07/M11 A3031 RMK A01 T10741105  RH  079%=      5-min Rain = 0
KPA1 090936Z 30003KT M07/M11 A3031 RMK A01 T10741105  RH  079%=      5-min Rain = 0
KPA1 090937Z 30003KT M07/M10 A3031 RMK A01 T10741104  RH  079%=      5-min Rain = 0
KPA1 090938Z 29002KT M08/M11 A303 RMK A01 T10751105  RH  079%=      5-min Rain = 0
KPA1 090939Z 27001KT M08/M11 A303 RMK A01 T10751105  RH  079%=      5-min Rain = 0
KPA1 090940Z 27002KT M08/M11 A303 RMK A01 T10761106  RH  079%=      5-min Rain = 0
KPA1 090941Z 25002KT M08/M11 A303 RMK A01 T10771107  RH  079%=      5-min Rain = 0
KPA1 090942Z 25003KT M08/M11 A303 RMK A01 T10771107  RH  079%=      5-min Rain = 0
KPA1 090943Z 25003KT M08/M11 A303 RMK A01 T10771107  RH  079%=      5-min Rain = 0
KPA1 090944Z 24002KT M08/M11 A303 RMK A01 T10781109  RH  079%=      5-min Rain = 0
KPA1 090945Z 24001KT M08/M11 A303 RMK A01 T10791109  RH  079%=      5-min Rain = 0
KPA1 090946Z 26001KT M08/M11 A303 RMK A01 T10801110  RH  079%=      5-min Rain = 0
KPA1 090947Z 29002KT M08/M11 A303 RMK A01 T10801108  RH  080%=      5-min Rain = 0
KPA1 090948Z 29002KT M08/M11 A303 RMK A01 T10781106  RH  081%=      5-min Rain = 0
KPA1 090949Z 27001KT M08/M11 A303 RMK A01 T10781106  RH  080%=      5-min Rain = 0
KPA1 090950Z 27001KT M08/M11 A303 RMK A01 T10781107  RH  080%=      5-min Rain = 0
KPA1 090951Z 26001KT M08/M11 A303 RMK A01 T10781109  RH  079%=      5-min Rain = 0
KPA1 090952Z 25001KT M08/M11 A303 RMK A01 T10801111  RH  079%=      5-min Rain = 0
KPA1 090953Z 25001KT M08/M11 A303 RMK A01 T10811110  RH  080%=      5-min Rain = 0
KPA1 090954Z 26001KT M08/M11 A303 RMK A01 T10811108  RH  081%=      5-min Rain = 0
KPA1 090955Z 27002KT M08/M11 A303 RMK A01 T10801107  RH  081%=      5-min Rain = 0
KPA1 090956Z 28003KT M08/M11 A303 RMK A01 T10801107  RH  081%=      5-min Rain = 0
KPA1 090957Z 28003KT M08/M11 A303 RMK A01 T10791107  RH  081%=      5-min Rain = 0
KPA1 090958Z 27003KT M08/M11 A303 RMK A01 T10791107  RH  080%=      5-min Rain = 0
KPA1 090959Z 27003KT M08/M11 A303 RMK A01 T10791108  RH  079%=      5-min Rain = 0
KPA1 091000Z 28004KT M08/M11 A303 RMK A01 T10811111  RH  079%=      5-min Rain = 0
KPA1 091001Z 28003KT M08/M11 A303 RMK A01 T10811112  RH  079%=      5-min Rain = 0
KPA1 091002Z 30003KT M08/M11 A303 RMK A01 T10821111  RH  079%=      5-min Rain = 0
KPA1 091003Z 31003KT M08/M11 A303 RMK A01 T10821111  RH  080%=      5-min Rain = 0
KPA1 091004Z 31003KT M08/M11 A303 RMK A01 T10821110  RH  080%=      5-min Rain = 0
KPA1 091005Z 32004KT M08/M11 A303 RMK A01 T10811109  RH  080%=      5-min Rain = 0
KPA1 091006Z 32004KT M08/M11 A303 RMK A01 T10791108  RH  080%=      5-min Rain = 0
KPA1 091007Z 32004KT M08/M11 A303 RMK A01 T10781109  RH  079%=      5-min Rain = 0
KPA1 091008Z 31004KT M08/M11 A303 RMK A01 T10801111  RH  078%=      5-min Rain = 0
KPA1 091009Z 31004KT M08/M11 A303 RMK A01 T10811112  RH  078%=      5-min Rain = 0
KPA1 091010Z 31004KT M08/M11 A303 RMK A01 T10791109  RH  079%=      5-min Rain = 0
KPA1 091011Z 31003KT M08/M11 A303 RMK A01 T10761107  RH  078%=      5-min Rain = 0
KPA1 091012Z 31004KT M07/M11 A3031 RMK A01 T10741107  RH  077%=      5-min Rain = 0
KPA1 091013Z 30004KT M07/M11 A3031 RMK A01 T10731108  RH  077%=      5-min Rain = 0
KPA1 091014Z 30004KT M07/M11 A3031 RMK A01 T10741108  RH  076%=      5-min Rain = 0
KPA1 091015Z 30005KT M07/M11 A3031 RMK A01 T10741109  RH  076%=      5-min Rain = 0
KPA1 091016Z 30005KT M07/M11 A3031 RMK A01 T10741109  RH  076%=      5-min Rain = 0
KPA1 091017Z 30005KT M07/M11 A3031 RMK A01 T10741109  RH  076%=      5-min Rain = 0
KPA1 091018Z 30006KT M08/M11 A3031 RMK A01 T10751109  RH  076%=      5-min Rain = 0
KPA1 091019Z 30005KT M08/M11 A3031 RMK A01 T10751109  RH  076%=      5-min Rain = 0
KPA1 091020Z 30006KT M08/M11 A3031 RMK A01 T10751109  RH  077%=      5-min Rain = 0
KPA1 091021Z 29006KT M08/M11 A3031 RMK A01 T10751109  RH  077%=      5-min Rain = 0
KPA1 091022Z 29006KT M08/M11 A3031 RMK A01 T10751108  RH  077%=      5-min Rain = 0
KPA1 091023Z 29006KT M08/M11 A3031 RMK A01 T10751108  RH  078%=      5-min Rain = 0
KPA1 091024Z 29006KT M08/M11 A3031 RMK A01 T10751107  RH  078%=      5-min Rain = 0
KPA1 091025Z 29006KT M08/M11 A3031 RMK A01 T10751107  RH  078%=      5-min Rain = 0
KPA1 091026Z 29006KT M08/M11 A3031 RMK A01 T10751106  RH  078%=      5-min Rain = 0
KPA1 091027Z 29007KT M08/M11 A3031 RMK A01 T10751106  RH  079%=      5-min Rain = 0
KPA1 091028Z 29007KT M07/M11 A3031 RMK A01 T10741105  RH  079%=      5-min Rain = 0
KPA1 091029Z 30007KT M07/M10 A3031 RMK A01 T10741103  RH  080%=      5-min Rain = 0
KPA1 091030Z 30006KT M07/M10 A3031 RMK A01 T10721100  RH  081%=      5-min Rain = 0
KPA1 091031Z 30006KT M07/M10 A3031 RMK A01 T10701096  RH  082%=      5-min Rain = 0
KPA1 091032Z 30006KT M07/M09 A3031 RMK A01 T10671092  RH  083%=      5-min Rain = 0
KPA1 091033Z 30007KT M07/M09 A3031 RMK A01 T10661091  RH  082%=      5-min Rain = 0
KPA1 091034Z 30007KT M07/M09 A3031 RMK A01 T10661093  RH  082%=      5-min Rain = 0
KPA1 091035Z 30008KT M07/M09 A3031 RMK A01 T10671094  RH  081%=      5-min Rain = 0
KPA1 091036Z 30007KT M07/M09 A3031 RMK A01 T10671094  RH  081%=      5-min Rain = 0
KPA1 091037Z 30007KT M07/M09 A3031 RMK A01 T10671094  RH  082%=      5-min Rain = 0
KPA1 091038Z 30007KT M07/M09 A3031 RMK A01 T10671093  RH  082%=      5-min Rain = 0
KPA1 091039Z 30007KT M07/M09 A3031 RMK A01 T10671093  RH  082%=      5-min Rain = 0
KPA1 091040Z 30007KT M07/M09 A3031 RMK A01 T10681092  RH  083%=      5-min Rain = 0
KPA1 091041Z 30007KT M07/M09 A3031 RMK A01 T10681092  RH  083%=      5-min Rain = 0
KPA1 091042Z 30006KT M07/M09 A3031 RMK A01 T10691092  RH  083%=      5-min Rain = 0
KPA1 091043Z 30006KT M07/M09 A3031 RMK A01 T10681092  RH  083%=      5-min Rain = 0
KPA1 091044Z 31006KT M07/M09 A3031 RMK A01 T10691092  RH  084%=      5-min Rain = 0
KPA1 091045Z 31006KT M07/M09 A303 RMK A01 T10691092  RH  084%=      5-min Rain = 0
KPA1 091046Z 31005KT M07/M09 A303 RMK A01 T10691092  RH  084%=      5-min Rain = 0
KPA1 091047Z 31005KT M07/M09 A3031 RMK A01 T10691091  RH  084%=      5-min Rain = 0
KPA1 091048Z 31005KT M07/M09 A3031 RMK A01 T10691091  RH  084%=      5-min Rain = 0
KPA1 091049Z 31005KT M07/M09 A3031 RMK A01 T10691091  RH  084%=      5-min Rain = 0
KPA1 091050Z 31005KT M07/M09 A3031 RMK A01 T10691091  RH  084%=      5-min Rain = 0
KPA1 091051Z 31006KT M07/M09 A3031 RMK A01 T10691091  RH  084%=      5-min Rain = 0
KPA1 091052Z 31006KT M07/M09 A3031 RMK A01 T10691091  RH  084%=      5-min Rain = 0
KPA1 091053Z 31006KT M07/M09 A3031 RMK A01 T10691091  RH  084%=      5-min Rain = 0
KPA1 091054Z 31006KT M07/M09 A3031 RMK A01 T10681091  RH  084%=      5-min Rain = 0
KPA1 091055Z 30006KT M07/M09 A3031 RMK A01 T10681090  RH  084%=      5-min Rain = 0
KPA1 091056Z 30007KT M07/M09 A3031 RMK A01 T10671089  RH  085%=      5-min Rain = 0
KPA1 091057Z 30007KT M07/M09 A3031 RMK A01 T10671089  RH  084%=      5-min Rain = 0
KPA1 091058Z 31007KT M07/M09 A3031 RMK A01 T10671089  RH  084%=      5-min Rain = 0
KPA1 091059Z 31006KT M07/M09 A3031 RMK A01 T10661088  RH  084%=      5-min Rain = 0
KPA1 091100Z 31006KT M07/M09 A3031 RMK A01 T10661088  RH  084%=      5-min Rain = 0
KPA1 091101Z 31005KT M07/M09 A3031 RMK A01 T10661088  RH  084%=      5-min Rain = 0
KPA1 091102Z 32005KT M07/M09 A303 RMK A01 T10661088  RH  084%=      5-min Rain = 0
KPA1 091103Z 32005KT M07/M09 A303 RMK A01 T10651088  RH  084%=      5-min Rain = 0
KPA1 091104Z 32005KT M07/M09 A303 RMK A01 T10651088  RH  084%=      5-min Rain = 0
KPA1 091105Z 31005KT M07/M09 A303 RMK A01 T10651088  RH  084%=      5-min Rain = 0
KPA1 091106Z 31005KT M07/M09 A303 RMK A01 T10651089  RH  084%=      5-min Rain = 0
KPA1 091107Z 31005KT M07/M09 A303 RMK A01 T10661089  RH  083%=      5-min Rain = 0
KPA1 091108Z 31005KT M07/M09 A303 RMK A01 T10661089  RH  083%=      5-min Rain = 0
KPA1 091109Z 31005KT M07/M09 A303 RMK A01 T10661090  RH  084%=      5-min Rain = 0
KPA1 091110Z 31005KT M07/M09 A303 RMK A01 T10661089  RH  084%=      5-min Rain = 0
KPA1 091111Z 31005KT M07/M09 A303 RMK A01 T10671090  RH  084%=      5-min Rain = 0
KPA1 091112Z 31005KT M07/M09 A303 RMK A01 T10671090  RH  084%=      5-min Rain = 0
KPA1 091113Z 31005KT M07/M09 A303 RMK A01 T10671090  RH  084%=      5-min Rain = 0
KPA1 091114Z 30005KT M07/M09 A303 RMK A01 T10671090  RH  084%=      5-min Rain = 0
KPA1 091115Z 30006KT M07/M09 A303 RMK A01 T10681090  RH  084%=      5-min Rain = 0
KPA1 091116Z 30006KT M07/M09 A303 RMK A01 T10681091  RH  084%=      5-min Rain = 0
KPA1 091117Z 30006KT M07/M09 A303 RMK A01 T10681091  RH  084%=      5-min Rain = 0
KPA1 091118Z 30006KT M07/M09 A303 RMK A01 T10691091  RH  084%=      5-min Rain = 0
KPA1 091119Z 30006KT M07/M09 A303 RMK A01 T10681090  RH  085%=      5-min Rain = 0
KPA1 091120Z 30006KT M07/M09 A303 RMK A01 T10681090  RH  085%=      5-min Rain = 0
KPA1 091121Z 30006KT M07/M09 A303 RMK A01 T10681090  RH  085%=      5-min Rain = 0
KPA1 091122Z 31006KT M07/M09 A303 RMK A01 T10691091  RH  085%=      5-min Rain = 0
KPA1 091123Z 31006KT M07/M09 A303 RMK A01 T10691091  RH  084%=      5-min Rain = 0
KPA1 091124Z 31005KT M07/M09 A303 RMK A01 T10701091  RH  085%=      5-min Rain = 0
KPA1 091125Z 31005KT M07/M09 A303 RMK A01 T10701091  RH  085%=      5-min Rain = 0
KPA1 091126Z 31005KT M07/M09 A303 RMK A01 T10701092  RH  085%=      5-min Rain = 0
KPA1 091127Z 31005KT M07/M09 A303 RMK A01 T10701091  RH  085%=      5-min Rain = 0
KPA1 091128Z 31005KT M07/M09 A303 RMK A01 T10691089  RH  086%=      5-min Rain = 0
KPA1 091129Z 31005KT M07/M09 A303 RMK A01 T10691089  RH  085%=      5-min Rain = 0
KPA1 091130Z 31005KT M07/M09 A303 RMK A01 T10681089  RH  085%=      5-min Rain = 0
KPA1 091131Z 30005KT M07/M09 A303 RMK A01 T10691091  RH  085%=      5-min Rain = 0
KPA1 091132Z 30006KT M07/M09 A303 RMK A01 T10701091  RH  085%=      5-min Rain = 0
KPA1 091133Z 30006KT M07/M09 A303 RMK A01 T10701091  RH  085%=      5-min Rain = 0
KPA1 091134Z 30007KT M07/M09 A303 RMK A01 T10701091  RH  085%=      5-min Rain = 0
KPA1 091135Z 30007KT M07/M09 A303 RMK A01 T10701090  RH  086%=      5-min Rain = 0
KPA1 091136Z 30007KT M07/M09 A303 RMK A01 T10691089  RH  086%=      5-min Rain = 0
KPA1 091137Z 30007KT M07/M09 A303 RMK A01 T10691089  RH  086%=      5-min Rain = 0
KPA1 091138Z 30007KT M07/M09 A303 RMK A01 T10691089  RH  086%=      5-min Rain = 0
KPA1 091139Z 30007KT M07/M09 A303 RMK A01 T10691089  RH  086%=      5-min Rain = 0
KPA1 091140Z 30007KT M07/M09 A303 RMK A01 T10681088  RH  086%=      5-min Rain = 0
KPA1 091141Z 30007KT M07/M09 A303 RMK A01 T10681088  RH  086%=      5-min Rain = 0
KPA1 091142Z 30007KT M07/M09 A303 RMK A01 T10681088  RH  086%=      5-min Rain = 0
KPA1 091143Z 29007KT M07/M09 A303 RMK A01 T10671087  RH  086%=      5-min Rain = 0
KPA1 091144Z 29008KT M07/M09 A303 RMK A01 T10661086  RH  086%=      5-min Rain = 0
KPA1 091145Z 29008KT M07/M09 A303 RMK A01 T10671087  RH  086%=      5-min Rain = 0
KPA1 091146Z 30007KT M07/M09 A3031 RMK A01 T10671087  RH  085%=      5-min Rain = 0
KPA1 091147Z 30007KT M07/M09 A303 RMK A01 T10671088  RH  085%=      5-min Rain = 0
KPA1 091148Z 30007KT M07/M09 A303 RMK A01 T10671088  RH  085%=      5-min Rain = 0
KPA1 091149Z 30007KT M07/M09 A303 RMK A01 T10681089  RH  085%=      5-min Rain = 0
KPA1 091150Z 30007KT M07/M09 A303 RMK A01 T10681089  RH  085%=      5-min Rain = 0
KPA1 091151Z 30007KT M07/M09 A303 RMK A01 T10681089  RH  085%=      5-min Rain = 0
KPA1 091152Z 30007KT M07/M09 A303 RMK A01 T10681089  RH  085%=      5-min Rain = 0
KPA1 091153Z 30007KT M07/M09 A303 RMK A01 T10681089  RH  085%=      5-min Rain = 0
KPA1 091154Z 30007KT M07/M09 A3031 RMK A01 T10681088  RH  085%=      5-min Rain = 0
KPA1 091155Z 30007KT M07/M09 A3031 RMK A01 T10681088  RH  085%=      5-min Rain = 0
KPA1 091156Z 30007KT M07/M09 A3031 RMK A01 T10671088  RH  085%=      5-min Rain = 0
KPA1 091157Z 30007KT M07/M09 A3031 RMK A01 T10661086  RH  086%=      5-min Rain = 0
KPA1 091158Z 30007KT M06/M08 A303 RMK A01 T10641083  RH  087%=      5-min Rain = 0
KPA1 091159Z 30007KT M06/M08 A3031 RMK A01 T10631082  RH  086%=      5-min Rain = 0
KPA1 091200Z 30007KT M06/M08 A3031 RMK A01 T10621082  RH  086%=      5-min Rain = 0
KPA1 091201Z 30007KT M06/M09 A3031 RMK A01 T10641085  RH  085%=      5-min Rain = 0
KPA1 091202Z 30007KT M07/M09 A3031 RMK A01 T10651087  RH  085%=      5-min Rain = 0
KPA1 091203Z 30007KT M07/M09 A3031 RMK A01 T10671089  RH  084%=      5-min Rain = 0
KPA1 091204Z 30007KT M07/M09 A3031 RMK A01 T10671089  RH  084%=      5-min Rain = 0
KPA1 091205Z 30007KT M07/M09 A3031 RMK A01 T10691090  RH  085%=      5-min Rain = 0
KPA1 091206Z 30007KT M07/M09 A3031 RMK A01 T10691090  RH  085%=      5-min Rain = 0
KPA1 091207Z 30007KT M07/M09 A3031 RMK A01 T10701090  RH  085%=      5-min Rain = 0
KPA1 091208Z 30007KT M07/M09 A3031 RMK A01 T10701090  RH  086%=      5-min Rain = 0
KPA1 091209Z 30007KT M07/M09 A3031 RMK A01 T10701089  RH  086%=      5-min Rain = 0
KPA1 091210Z 30007KT M07/M09 A3031 RMK A01 T10701089  RH  086%=      5-min Rain = 0
KPA1 091211Z 30007KT M07/M09 A3031 RMK A01 T10691089  RH  086%=      5-min Rain = 0
KPA1 091212Z 30007KT M07/M09 A3031 RMK A01 T10691088  RH  086%=      5-min Rain = 0
KPA1 091213Z 30007KT M07/M09 A3031 RMK A01 T10691088  RH  086%=      5-min Rain = 0
KPA1 091214Z 30007KT M07/M09 A3031 RMK A01 T10691088  RH  086%=      5-min Rain = 0
KPA1 091215Z 30007KT M07/M09 A3031 RMK A01 T10691089  RH  086%=      5-min Rain = 0
KPA1 091216Z 30007KT M07/M09 A3031 RMK A01 T10701089  RH  086%=      5-min Rain = 0
KPA1 091217Z 30007KT M07/M09 A3031 RMK A01 T10701089  RH  086%=      5-min Rain = 0
KPA1 091218Z 30007KT M07/M09 A3031 RMK A01 T10701089  RH  087%=      5-min Rain = 0
KPA1 091219Z 30007KT M07/M09 A3031 RMK A01 T10691088  RH  087%=      5-min Rain = 0
KPA1 091220Z 30006KT M07/M09 A3031 RMK A01 T10691086  RH  087%=      5-min Rain = 0
KPA1 091221Z 30007KT M07/M09 A3031 RMK A01 T10671085  RH  087%=      5-min Rain = 0
KPA1 091222Z 30007KT M07/M08 A3031 RMK A01 T10671084  RH  087%=      5-min Rain = 0
KPA1 091223Z 30007KT M07/M09 A3031 RMK A01 T10671085  RH  087%=      5-min Rain = 0
KPA1 091224Z 30007KT M07/M09 A3031 RMK A01 T10671086  RH  087%=      5-min Rain = 0
KPA1 091225Z 30007KT M07/M09 A3031 RMK A01 T10671086  RH  086%=      5-min Rain = 0
KPA1 091226Z 30008KT M07/M09 A3031 RMK A01 T10681087  RH  086%=      5-min Rain = 0
KPA1 091227Z 30008KT M07/M09 A3032 RMK A01 T10681087  RH  086%=      5-min Rain = 0
KPA1 091228Z 30008KT M07/M09 A3032 RMK A01 T10681087  RH  087%=      5-min Rain = 0
KPA1 091229Z 30008KT M07/M09 A3032 RMK A01 T10681087  RH  087%=      5-min Rain = 0
KPA1 091230Z 30007KT M07/M09 A3032 RMK A01 T10691087  RH  087%=      5-min Rain = 0
KPA1 091231Z 30007KT M07/M09 A3032 RMK A01 T10681086  RH  087%=      5-min Rain = 0
KPA1 091232Z 30007KT M07/M09 A3032 RMK A01 T10681086  RH  087%=      5-min Rain = 0
KPA1 091233Z 30007KT M07/M09 A3032 RMK A01 T10681086  RH  087%=      5-min Rain = 0
KPA1 091234Z 30008KT M07/M09 A3032 RMK A01 T10671086  RH  087%=      5-min Rain = 0
KPA1 091235Z 30008KT M07/M09 A3032 RMK A01 T10681086  RH  087%=      5-min Rain = 0
KPA1 091236Z 30007KT M07/M09 A3032 RMK A01 T10681087  RH  087%=      5-min Rain = 0
KPA1 091237Z 30007KT M07/M09 A3032 RMK A01 T10671086  RH  087%=      5-min Rain = 0
KPA1 091238Z 30007KT M07/M08 A3032 RMK A01 T10651084  RH  087%=      5-min Rain = 0
KPA1 091239Z 30007KT M07/M08 A3032 RMK A01 T10651083  RH  087%=      5-min Rain = 0
KPA1 091240Z 30007KT M07/M09 A3032 RMK A01 T10651085  RH  086%=      5-min Rain = 0
KPA1 091241Z 30007KT M07/M09 A3032 RMK A01 T10661086  RH  086%=      5-min Rain = 0
KPA1 091242Z 30007KT M07/M09 A3032 RMK A01 T10671087  RH  086%=      5-min Rain = 0
KPA1 091243Z 30007KT M07/M09 A3032 RMK A01 T10681088  RH  086%=      5-min Rain = 0
KPA1 091244Z 30007KT M07/M09 A3032 RMK A01 T10691088  RH  086%=      5-min Rain = 0
KPA1 091245Z 30007KT M07/M09 A3032 RMK A01 T10701089  RH  086%=      5-min Rain = 0
KPA1 091246Z 30007KT M07/M09 A3032 RMK A01 T10701089  RH  086%=      5-min Rain = 0
KPA1 091247Z 30007KT M07/M09 A3032 RMK A01 T10701089  RH  086%=      5-min Rain = 0
KPA1 091248Z 30007KT M07/M09 A3032 RMK A01 T10701089  RH  087%=      5-min Rain = 0
KPA1 091249Z 31006KT M07/M09 A3032 RMK A01 T10701089  RH  087%=      5-min Rain = 0
KPA1 091250Z 31007KT M07/M09 A3032 RMK A01 T10701089  RH  087%=      5-min Rain = 0
KPA1 091251Z 31006KT M07/M09 A3032 RMK A01 T10701089  RH  087%=      5-min Rain = 0
KPA1 091252Z 31006KT M07/M09 A3032 RMK A01 T10701089  RH  087%=      5-min Rain = 0
KPA1 091253Z 31007KT M07/M09 A3032 RMK A01 T10711089  RH  087%=      5-min Rain = 0
KPA1 091254Z 30006KT M07/M09 A3032 RMK A01 T10711089  RH  087%=      5-min Rain = 0
KPA1 091255Z 30006KT M07/M09 A3032 RMK A01 T10711089  RH  087%=      5-min Rain = 0
KPA1 091256Z 31006KT M07/M09 A3032 RMK A01 T10711090  RH  086%=      5-min Rain = 0
KPA1 091257Z 31007KT M07/M09 A3032 RMK A01 T10711090  RH  086%=      5-min Rain = 0
KPA1 091258Z 31006KT M07/M09 A3032 RMK A01 T10721091  RH  086%=      5-min Rain = 0
KPA1 091259Z 31006KT M07/M09 A3032 RMK A01 T10711090  RH  086%=      5-min Rain = 0
KPA1 091300Z 31006KT M07/M09 A3032 RMK A01 T10691088  RH  087%=      5-min Rain = 0
KPA1 091301Z 31006KT M07/M09 A3032 RMK A01 T10681087  RH  086%=      5-min Rain = 0
KPA1 091302Z 31006KT M07/M09 A3032 RMK A01 T10681088  RH  086%=      5-min Rain = 0
KPA1 091303Z 31006KT M07/M09 A3032 RMK A01 T10681089  RH  085%=      5-min Rain = 0
KPA1 091304Z 31006KT M07/M09 A3032 RMK A01 T10691090  RH  085%=      5-min Rain = 0
KPA1 091305Z 31006KT M07/M09 A3032 RMK A01 T10701091  RH  085%=      5-min Rain = 0
KPA1 091306Z 31007KT M07/M09 A3032 RMK A01 T10711092  RH  085%=      5-min Rain = 0
KPA1 091307Z 31007KT M07/M09 A3032 RMK A01 T10711092  RH  085%=      5-min Rain = 0
KPA1 091308Z 31007KT M07/M09 A3033 RMK A01 T10711092  RH  085%=      5-min Rain = 0
KPA1 091309Z 31007KT M07/M09 A3033 RMK A01 T10721093  RH  085%=      5-min Rain = 0
KPA1 091310Z 31007KT M07/M09 A3033 RMK A01 T10731093  RH  085%=      5-min Rain = 0
KPA1 091311Z 31007KT M07/M09 A3033 RMK A01 T10731093  RH  086%=      5-min Rain = 0
KPA1 091312Z 31007KT M07/M09 A3033 RMK A01 T10741093  RH  086%=      5-min Rain = 0
KPA1 091313Z 31007KT M07/M09 A3033 RMK A01 T10741093  RH  086%=      5-min Rain = 0
KPA1 091314Z 31007KT M07/M09 A3033 RMK A01 T10731092  RH  086%=      5-min Rain = 0
KPA1 091315Z 31007KT M07/M09 A3033 RMK A01 T10731092  RH  086%=      5-min Rain = 0
KPA1 091316Z 31006KT M07/M09 A3033 RMK A01 T10721092  RH  086%=      5-min Rain = 0
KPA1 091317Z 31007KT M07/M09 A3033 RMK A01 T10721092  RH  086%=      5-min Rain = 0
KPA1 091318Z 31006KT M07/M09 A3033 RMK A01 T10721092  RH  085%=      5-min Rain = 0
KPA1 091319Z 30006KT M07/M09 A3033 RMK A01 T10721093  RH  085%=      5-min Rain = 0
KPA1 091320Z 30006KT M07/M09 A3033 RMK A01 T10721093  RH  085%=      5-min Rain = 0
KPA1 091321Z 31006KT M07/M09 A3033 RMK A01 T10721093  RH  085%=      5-min Rain = 0
KPA1 091322Z 31006KT M07/M09 A3033 RMK A01 T10721094  RH  085%=      5-min Rain = 0
KPA1 091323Z 31006KT M07/M09 A3033 RMK A01 T10731094  RH  085%=      5-min Rain = 0
KPA1 091324Z 31006KT M07/M10 A3033 RMK A01 T10741095  RH  085%=      5-min Rain = 0
KPA1 091325Z 31007KT M07/M10 A3033 RMK A01 T10741096  RH  085%=      5-min Rain = 0
KPA1 091326Z 31007KT M07/M10 A3033 RMK A01 T10741096  RH  085%=      5-min Rain = 0
KPA1 091327Z 31007KT M07/M10 A3033 RMK A01 T10741095  RH  085%=      5-min Rain = 0
KPA1 091328Z 31007KT M07/M10 A3033 RMK A01 T10741095  RH  085%=      5-min Rain = 0
KPA1 091329Z 31006KT M07/M09 A3033 RMK A01 T10731094  RH  085%=      5-min Rain = 0
KPA1 091330Z 31006KT M07/M09 A3033 RMK A01 T10731094  RH  085%=      5-min Rain = 0
KPA1 091331Z 31006KT M07/M09 A3033 RMK A01 T10731094  RH  085%=      5-min Rain = 0
KPA1 091332Z 31006KT M07/M09 A3033 RMK A01 T10721094  RH  084%=      5-min Rain = 0
KPA1 091333Z 31006KT M07/M09 A3033 RMK A01 T10721094  RH  084%=      5-min Rain = 0
KPA1 091334Z 31006KT M07/M09 A3033 RMK A01 T10721094  RH  084%=      5-min Rain = 0
KPA1 091335Z 31007KT M07/M10 A3033 RMK A01 T10721095  RH  084%=      5-min Rain = 0
KPA1 091336Z 31007KT M07/M10 A3033 RMK A01 T10721095  RH  084%=      5-min Rain = 0
KPA1 091337Z 30007KT M07/M10 A3033 RMK A01 T10721095  RH  083%=      5-min Rain = 0
KPA1 091338Z 31007KT M07/M10 A3033 RMK A01 T10721095  RH  083%=      5-min Rain = 0
KPA1 091339Z 31007KT M07/M10 A3033 RMK A01 T10711095  RH  084%=      5-min Rain = 0
KPA1 091340Z 31007KT M07/M09 A3033 RMK A01 T10711094  RH  084%=      5-min Rain = 0
KPA1 091341Z 30007KT M07/M09 A3033 RMK A01 T10701094  RH  083%=      5-min Rain = 0
KPA1 091342Z 30007KT M07/M09 A3033 RMK A01 T10701094  RH  083%=      5-min Rain = 0
KPA1 091343Z 30007KT M07/M10 A3033 RMK A01 T10701095  RH  083%=      5-min Rain = 0
KPA1 091344Z 31007KT M07/M10 A3034 RMK A01 T10701095  RH  083%=      5-min Rain = 0
KPA1 091345Z 30007KT M07/M10 A3034 RMK A01 T10701095  RH  083%=      5-min Rain = 0
KPA1 091346Z 30007KT M07/M10 A3034 RMK A01 T10701095  RH  082%=      5-min Rain = 0
KPA1 091347Z 30007KT M07/M10 A3034 RMK A01 T10701095  RH  082%=      5-min Rain = 0
KPA1 091348Z 30007KT M07/M10 A3034 RMK A01 T10691095  RH  082%=      5-min Rain = 0
KPA1 091349Z 30006KT M07/M10 A3034 RMK A01 T10691095  RH  082%=      5-min Rain = 0
KPA1 091350Z 30006KT M07/M10 A3034 RMK A01 T10691096  RH  082%=      5-min Rain = 0
KPA1 091351Z 30007KT M07/M10 A3034 RMK A01 T10701096  RH  081%=      5-min Rain = 0
KPA1 091352Z 30007KT M07/M10 A3034 RMK A01 T10691096  RH  081%=      5-min Rain = 0
KPA1 091353Z 30007KT M07/M10 A3034 RMK A01 T10691096  RH  081%=      5-min Rain = 0
KPA1 091354Z 30006KT M07/M10 A3034 RMK A01 T10691096  RH  081%=      5-min Rain = 0
KPA1 091355Z 30007KT M07/M10 A3034 RMK A01 T10691096  RH  081%=      5-min Rain = 0
KPA1 091356Z 30007KT M07/M10 A3034 RMK A01 T10691096  RH  082%=      5-min Rain = 0
KPA1 091357Z 30007KT M07/M10 A3034 RMK A01 T10691095  RH  082%=      5-min Rain = 0
KPA1 091358Z 31007KT M07/M10 A3034 RMK A01 T10681095  RH  082%=      5-min Rain = 0
KPA1 091359Z 30006KT M07/M09 A3034 RMK A01 T10681094  RH  081%=      5-min Rain = 0
KPA1 091400Z 30006KT M07/M09 A3034 RMK A01 T10671094  RH  081%=      5-min Rain = 0
KPA1 091401Z 30006KT M07/M09 A3034 RMK A01 T10671094  RH  081%=      5-min Rain = 0
KPA1 091402Z 30007KT M07/M09 A3034 RMK A01 T10661094  RH  081%=      5-min Rain = 0
KPA1 091403Z 30007KT M07/M09 A3034 RMK A01 T10661093  RH  081%=      5-min Rain = 0
KPA1 091404Z 30007KT M07/M09 A3034 RMK A01 T10651092  RH  081%=      5-min Rain = 0
KPA1 091405Z 30007KT M06/M09 A3034 RMK A01 T10641092  RH  080%=      5-min Rain = 0
KPA1 091406Z 30006KT M06/M09 A3034 RMK A01 T10631091  RH  080%=      5-min Rain = 0
KPA1 091407Z 30006KT M06/M09 A3034 RMK A01 T10621091  RH  080%=      5-min Rain = 0
KPA1 091408Z 30006KT M06/M09 A3034 RMK A01 T10621091  RH  079%=      5-min Rain = 0
KPA1 091409Z 30006KT M06/M09 A3034 RMK A01 T10611092  RH  079%=      5-min Rain = 0
KPA1 091410Z 29006KT M06/M09 A3034 RMK A01 T10621093  RH  079%=      5-min Rain = 0
KPA1 091411Z 29005KT M06/M10 A3034 RMK A01 T10641095  RH  079%=      5-min Rain = 0
KPA1 091412Z 29005KT M07/M10 A3035 RMK A01 T10661096  RH  079%=      5-min Rain = 0
KPA1 091413Z 29005KT M07/M10 A3035 RMK A01 T10671096  RH  079%=      5-min Rain = 0
KPA1 091414Z 29005KT M07/M10 A3035 RMK A01 T10681097  RH  080%=      5-min Rain = 0
KPA1 091415Z 29005KT M07/M10 A3035 RMK A01 T10691098  RH  080%=      5-min Rain = 0
KPA1 091416Z 29004KT M07/M10 A3035 RMK A01 T10691097  RH  080%=      5-min Rain = 0
KPA1 091417Z 29004KT M07/M10 A3035 RMK A01 T10691097  RH  081%=      5-min Rain = 0
KPA1 091418Z 29004KT M07/M10 A3035 RMK A01 T10691096  RH  081%=      5-min Rain = 0
KPA1 091419Z 29004KT M07/M10 A3035 RMK A01 T10681095  RH  081%=      5-min Rain = 0
KPA1 091420Z 29004KT M07/M09 A3035 RMK A01 T10671094  RH  082%=      5-min Rain = 0
KPA1 091421Z 29004KT M07/M09 A3035 RMK A01 T10661091  RH  082%=      5-min Rain = 0
KPA1 091422Z 29005KT M06/M09 A3035 RMK A01 T10641089  RH  082%=      5-min Rain = 0
KPA1 091423Z 29005KT M06/M09 A3035 RMK A01 T10611087  RH  082%=      5-min Rain = 0
KPA1 091424Z 29005KT M06/M09 A3035 RMK A01 T10601086  RH  082%=      5-min Rain = 0
KPA1 091425Z 29004KT M06/M09 A3035 RMK A01 T10591087  RH  081%=      5-min Rain = 0
KPA1 091426Z 29003KT M06/M09 A3035 RMK A01 T10591087  RH  080%=      5-min Rain = 0
KPA1 091427Z 30003KT M06/M09 A3035 RMK A01 T10581087  RH  080%=      5-min Rain = 0
KPA1 091428Z 29004KT M06/M09 A3035 RMK A01 T10581087  RH  080%=      5-min Rain = 0
KPA1 091429Z 29004KT M06/M09 A3035 RMK A01 T10581088  RH  080%=      5-min Rain = 0
KPA1 091430Z 29004KT M06/M09 A3035 RMK A01 T10581087  RH  080%=      5-min Rain = 0
KPA1 091431Z 29005KT M06/M09 A3035 RMK A01 T10581087  RH  080%=      5-min Rain = 0
KPA1 091432Z 29005KT M06/M09 A3035 RMK A01 T10581086  RH  080%=      5-min Rain = 0
KPA1 091433Z 29004KT M06/M09 A3035 RMK A01 T10571086  RH  080%=      5-min Rain = 0
KPA1 091434Z 29004KT M06/M09 A3035 RMK A01 T10561085  RH  080%=      5-min Rain = 0
KPA1 091435Z 30003KT M06/M09 A3035 RMK A01 T10561085  RH  080%=      5-min Rain = 0
KPA1 091436Z 30003KT M06/M08 A3035 RMK A01 T10551084  RH  080%=      5-min Rain = 0
KPA1 091437Z 30003KT M05/M08 A3035 RMK A01 T10541082  RH  081%=      5-min Rain = 0
KPA1 091438Z 31003KT M05/M08 A3035 RMK A01 T10531081  RH  081%=      5-min Rain = 0
KPA1 091439Z 30003KT M05/M08 A3035 RMK A01 T10521079  RH  081%=      5-min Rain = 0
KPA1 091440Z 30003KT M05/M08 A3035 RMK A01 T10511079  RH  080%=      5-min Rain = 0
KPA1 091441Z 31003KT M05/M08 A3035 RMK A01 T10501081  RH  079%=      5-min Rain = 0
KPA1 091442Z 31003KT M05/M08 A3035 RMK A01 T10491080  RH  079%=      5-min Rain = 0
KPA1 091443Z 31003KT M05/M08 A3035 RMK A01 T10481078  RH  080%=      5-min Rain = 0
KPA1 091444Z 31003KT M05/M08 A3035 RMK A01 T10471077  RH  080%=      5-min Rain = 0
KPA1 091445Z 32003KT M05/M08 A3035 RMK A01 T10461078  RH  079%=      5-min Rain = 0
KPA1 091446Z 31003KT M05/M08 A3035 RMK A01 T10451077  RH  079%=      5-min Rain = 0
KPA1 091447Z 31004KT M04/M08 A3035 RMK A01 T10441077  RH  078%=      5-min Rain = 0
KPA1 091448Z 30003KT M04/M08 A3035 RMK A01 T10441077  RH  077%=      5-min Rain = 0
KPA1 091449Z 30005KT M04/M08 A3035 RMK A01 T10431075  RH  078%=      5-min Rain = 0
KPA1 091450Z 30005KT M04/M07 A3035 RMK A01 T10411074  RH  078%=      5-min Rain = 0
KPA1 091451Z 31005KT M04/M07 A3035 RMK A01 T10401072  RH  078%=      5-min Rain = 0
KPA1 091452Z 30004KT M04/M07 A3035 RMK A01 T10391072  RH  078%=      5-min Rain = 0
KPA1 091453Z 31004KT M04/M07 A3035 RMK A01 T10381070  RH  078%=      5-min Rain = 0
KPA1 091454Z 31004KT M04/M07 A3035 RMK A01 T10371069  RH  079%=      5-min Rain = 0
KPA1 091455Z 30004KT M04/M07 A3035 RMK A01 T10371069  RH  078%=      5-min Rain = 0
KPA1 091456Z 30004KT M04/M07 A3035 RMK A01 T10361070  RH  077%=      5-min Rain = 0
KPA1 091457Z 30005KT M04/M07 A3035 RMK A01 T10361071  RH  077%=      5-min Rain = 0
KPA1 091458Z 30004KT M04/M07 A3036 RMK A01 T10361070  RH  077%=      5-min Rain = 0
KPA1 091459Z 29004KT M04/M07 A3036 RMK A01 T10351069  RH  078%=      5-min Rain = 0
KPA1 091500Z 30004KT M04/M07 A3036 RMK A01 T10351067  RH  078%=      5-min Rain = 0
KPA1 091501Z 30005KT M03/M07 A3036 RMK A01 T10341065  RH  079%=      5-min Rain = 0
KPA1 091502Z 30004KT M03/M07 A3036 RMK A01 T10331065  RH  079%=      5-min Rain = 0
KPA1 091503Z 30004KT M03/M07 A3036 RMK A01 T10331065  RH  079%=      5-min Rain = 0
KPA1 091504Z 31003KT M03/M07 A3036 RMK A01 T10321065  RH  078%=      5-min Rain = 0
KPA1 091505Z 30004KT M03/M06 A3036 RMK A01 T10311063  RH  078%=      5-min Rain = 0
KPA1 091506Z 30004KT M03/M06 A3036 RMK A01 T10301062  RH  079%=      5-min Rain = 0
KPA1 091507Z 30004KT M03/M06 A3036 RMK A01 T10291061  RH  078%=      5-min Rain = 0
KPA1 091508Z 30003KT M03/M06 A3036 RMK A01 T10281061  RH  078%=      5-min Rain = 0
KPA1 091509Z 29003KT M03/M06 A3036 RMK A01 T10271059  RH  079%=      5-min Rain = 0
KPA1 091510Z 28003KT M03/M06 A3036 RMK A01 T10261057  RH  079%=      5-min Rain = 0
KPA1 091511Z 29004KT M03/M06 A3036 RMK A01 T10251057  RH  079%=      5-min Rain = 0
KPA1 091512Z 29004KT M03/M06 A3036 RMK A01 T10251058  RH  078%=      5-min Rain = 0
KPA1 091513Z 28004KT M02/M06 A3036 RMK A01 T10241058  RH  078%=      5-min Rain = 0
KPA1 091514Z 28003KT M02/M06 A3036 RMK A01 T10241059  RH  077%=      5-min Rain = 0
KPA1 091515Z 28004KT M02/M06 A3036 RMK A01 T10221057  RH  077%=      5-min Rain = 0
KPA1 091516Z 27003KT M02/M06 A3036 RMK A01 T10221059  RH  076%=      5-min Rain = 0
KPA1 091517Z 28004KT M02/M06 A3036 RMK A01 T10211058  RH  076%=      5-min Rain = 0
KPA1 091518Z 28004KT M02/M06 A3036 RMK A01 T10211057  RH  076%=      5-min Rain = 0
KPA1 091519Z 28004KT M02/M06 A3036 RMK A01 T10201057  RH  076%=      5-min Rain = 0
KPA1 091520Z 28004KT M02/M06 A3036 RMK A01 T10191057  RH  075%=      5-min Rain = 0
KPA1 091521Z 28004KT M02/M06 A3036 RMK A01 T10181055  RH  076%=      5-min Rain = 0
KPA1 091522Z 28004KT M02/M05 A3036 RMK A01 T10171052  RH  077%=      5-min Rain = 0
KPA1 091523Z 28005KT M02/M05 A3036 RMK A01 T10161051  RH  077%=      5-min Rain = 0
KPA1 091524Z 29005KT M02/M05 A3036 RMK A01 T10151054  RH  075%=      5-min Rain = 0
KPA1 091525Z 28004KT M02/M06 A3036 RMK A01 T10151055  RH  074%=      5-min Rain = 0
KPA1 091526Z 28003KT M02/M05 A3036 RMK A01 T10151053  RH  075%=      5-min Rain = 0
KPA1 091527Z 29004KT M01/M05 A3036 RMK A01 T10141051  RH  076%=      5-min Rain = 0
KPA1 091528Z 29004KT M01/M05 A3036 RMK A01 T10141053  RH  075%=      5-min Rain = 0
KPA1 091529Z 29004KT M01/M05 A3036 RMK A01 T10131051  RH  075%=      5-min Rain = 0
KPA1 091530Z 29004KT M01/M05 A3036 RMK A01 T10121050  RH  076%=      5-min Rain = 0
KPA1 091531Z 29004KT M01/M05 A3036 RMK A01 T10111048  RH  076%=      5-min Rain = 0
KPA1 091532Z 29004KT M01/M05 A3036 RMK A01 T10111051  RH  074%=      5-min Rain = 0
KPA1 091533Z 30003KT M01/M05 A3036 RMK A01 T10101051  RH  074%=      5-min Rain = 0
KPA1 091534Z 30003KT M01/M05 A3036 RMK A01 T10091047  RH  076%=      5-min Rain = 0
KPA1 091535Z 31003KT M01/M05 A3036 RMK A01 T10081046  RH  075%=      5-min Rain = 0
KPA1 091536Z 29002KT M01/M05 A3036 RMK A01 T10071048  RH  074%=      5-min Rain = 0
KPA1 091537Z 32003KT M01/M05 A3036 RMK A01 T10071050  RH  073%=      5-min Rain = 0
KPA1 091538Z 30003KT M01/M05 A3036 RMK A01 T10061048  RH  073%=      5-min Rain = 0
KPA1 091539Z 31002KT M01/M05 A3036 RMK A01 T10061050  RH  072%=      5-min Rain = 0
KPA1 091540Z 31003KT M01/M05 A3036 RMK A01 T10051048  RH  073%=      5-min Rain = 0
KPA1 091541Z 31003KT M00/M05 A3036 RMK A01 T10041048  RH  072%=      5-min Rain = 0
KPA1 091542Z 32003KT M00/M05 A3036 RMK A01 T10031048  RH  072%=      5-min Rain = 0
KPA1 091543Z 33003KT M00/M05 A3036 RMK A01 T10031049  RH  071%=      5-min Rain = 0
KPA1 091544Z 32004KT M00/M05 A3036 RMK A01 T10021047  RH  072%=      5-min Rain = 0
KPA1 091545Z 32003KT M00/M05 A3037 RMK A01 T10021048  RH  071%=      5-min Rain = 0
KPA1 091546Z 32003KT M00/M05 A3037 RMK A01 T10021050  RH  071%=      5-min Rain = 0
KPA1 091547Z 32003KT M00/M05 A3037 RMK A01 T10031050  RH  071%=      5-min Rain = 0
KPA1 091548Z 30004KT M00/M05 A3037 RMK A01 T10031050  RH  071%=      5-min Rain = 0
KPA1 091549Z 31004KT M00/M05 A3037 RMK A01 T10031048  RH  072%=      5-min Rain = 0
KPA1 091550Z 30004KT M00/M05 A3037 RMK A01 T10021047  RH  072%=      5-min Rain = 0
KPA1 091551Z 31004KT M00/M05 A3037 RMK A01 T10011045  RH  072%=      5-min Rain = 0
KPA1 091552Z 31004KT 00/05 A3037 RMK A01 T00000-45  RH  072%=      5-min Rain = 0
KPA1 091553Z 31004KT 00/M04 A3037 RMK A01 T00021041  RH  073%=      5-min Rain = 0
KPA1 091554Z 30005KT 00/M04 A3037 RMK A01 T00031041  RH  072%=      5-min Rain = 0
KPA1 091555Z 30004KT 00/M05 A3037 RMK A01 T00031045  RH  070%=      5-min Rain = 0
KPA1 091556Z 31004KT 00/M04 A3037 RMK A01 T00031043  RH  071%=      5-min Rain = 0
KPA1 091557Z 30004KT 00/M05 A3037 RMK A01 T00041045  RH  070%=      5-min Rain = 0
KPA1 091558Z 31005KT 00/M04 A3037 RMK A01 T00041044  RH  070%=      5-min Rain = 0
KPA1 091559Z 31004KT 01/M04 A3037 RMK A01 T00051040  RH  071%=      5-min Rain = 0
KPA1 091600Z 31004KT 01/M04 A3038 RMK A01 T00071041  RH  070%=      5-min Rain = 0
KPA1 091601Z 31004KT 01/M04 A3038 RMK A01 T00071044  RH  069%=      5-min Rain = 0
KPA1 091602Z 32005KT 01/M04 A3038 RMK A01 T00071042  RH  070%=      5-min Rain = 0
KPA1 091603Z 33005KT 01/M04 A3037 RMK A01 T00081043  RH  069%=      5-min Rain = 0
KPA1 091604Z 31005KT 01/M04 A3037 RMK A01 T00081042  RH  069%=      5-min Rain = 0
KPA1 091605Z 32005KT 01/M04 A3037 RMK A01 T00101040  RH  069%=      5-min Rain = 0
KPA1 091606Z 32003KT 01/M04 A3038 RMK A01 T00121038  RH  069%=      5-min Rain = 0
KPA1 091607Z 31004KT 01/M04 A3038 RMK A01 T00131038  RH  069%=      5-min Rain = 0
KPA1 091608Z 31005KT 01/M04 A3038 RMK A01 T00141039  RH  068%=      5-min Rain = 0
KPA1 091609Z 31005KT 01/M04 A3038 RMK A01 T00141040  RH  067%=      5-min Rain = 0
KPA1 091610Z 31005KT 01/M04 A3038 RMK A01 T00141039  RH  068%=      5-min Rain = 0
KPA1 091611Z 31006KT 02/M04 A3038 RMK A01 T00151039  RH  067%=      5-min Rain = 0
KPA1 091612Z 31005KT 02/M04 A3038 RMK A01 T00161038  RH  067%=      5-min Rain = 0
KPA1 091613Z 31005KT 02/M04 A3038 RMK A01 T00181035  RH  068%=      5-min Rain = 0
KPA1 091614Z 31005KT 02/M04 A3038 RMK A01 T00191038  RH  066%=      5-min Rain = 0
KPA1 091615Z 31005KT 02/M04 A3038 RMK A01 T00201040  RH  065%=      5-min Rain = 0
KPA1 091616Z 32004KT 02/M04 A3038 RMK A01 T00201039  RH  065%=      5-min Rain = 0
KPA1 091617Z 33006KT 02/M04 A3038 RMK A01 T00231035  RH  065%=      5-min Rain = 0
KPA1 091618Z 32007KT 03/M04 A3038 RMK A01 T00251037  RH  064%=      5-min Rain = 0
KPA1 091619Z 31006KT 03/M04 A3038 RMK A01 T00251041  RH  062%=      5-min Rain = 0
KPA1 091620Z 32006KT 03/M04 A3038 RMK A01 T00251041  RH  061%=      5-min Rain = 0
KPA1 091621Z 33005KT 03/M04 A3038 RMK A01 T00261041  RH  061%=      5-min Rain = 0
KPA1 091622Z 33004KT 03/M04 A3038 RMK A01 T00271041  RH  061%=      5-min Rain = 0
KPA1 091623Z 32004KT 03/M04 A3037 RMK A01 T00271042  RH  060%=      5-min Rain = 0
KPA1 091624Z 33004KT 03/M04 A3037 RMK A01 T00281040  RH  061%=      5-min Rain = 0
KPA1 091625Z 33004KT 03/M04 A3037 RMK A01 T00301038  RH  061%=      5-min Rain = 0
KPA1 091626Z 34007KT 03/M04 A3038 RMK A01 T00321038  RH  060%=      5-min Rain = 0
KPA1 091627Z 34007KT 03/M04 A3038 RMK A01 T00331041  RH  058%=      5-min Rain = 0
KPA1 091628Z 34008KT 03/M04 A3038 RMK A01 T00331042  RH  058%=      5-min Rain = 0
KPA1 091629Z 34008KT 03/M04 A3038 RMK A01 T00331043  RH  057%=      5-min Rain = 0
KPA1 091630Z 33006KT 03/M04 A3038 RMK A01 T00341043  RH  057%=      5-min Rain = 0
KPA1 091631Z 34007KT 04/M04 A3038 RMK A01 T00351041  RH  058%=      5-min Rain = 0
KPA1 091632Z 32006KT 04/M04 A3038 RMK A01 T00351043  RH  057%=      5-min Rain = 0
KPA1 091633Z 33007KT 04/M04 A3038 RMK A01 T00361043  RH  057%=      5-min Rain = 0
KPA1 091634Z 32008KT 04/M04 A3038 RMK A01 T00371042  RH  057%=      5-min Rain = 0
KPA1 091635Z 32007KT 04/M04 A3038 RMK A01 T00371043  RH  056%=      5-min Rain = 0
KPA1 091636Z 33007KT 04/M04 A3038 RMK A01 T00371042  RH  056%=      5-min Rain = 0
KPA1 091637Z 32008KT 04/M04 A3038 RMK A01 T00391040  RH  056%=      5-min Rain = 0
KPA1 091638Z 32008KT 04/M04 A3038 RMK A01 T00391044  RH  055%=      5-min Rain = 0
KPA1 091639Z 32009KT 04/M05 A3038 RMK A01 T00381045  RH  055%=      5-min Rain = 0
KPA1 091640Z 32009KT 04/M05 A3038 RMK A01 T00381045  RH  055%=      5-min Rain = 0
KPA1 091641Z 33008KT 04/M05 A3038 RMK A01 T00381045  RH  055%=      5-min Rain = 0
KPA1 091642Z 33008KT 04/M04 A3038 RMK A01 T00391042  RH  055%=      5-min Rain = 0
KPA1 091643Z 32009KT 04/M05 A3038 RMK A01 T00401045  RH  054%=      5-min Rain = 0
KPA1 091644Z 32009KT 04/M04 A3038 RMK A01 T00401044  RH  054%=      5-min Rain = 0
KPA1 091645Z 32009KT 04/M04 A3038 RMK A01 T00411044  RH  054%=      5-min Rain = 0
KPA1 091646Z 32008KT 04/M04 A3038 RMK A01 T00411043  RH  054%=      5-min Rain = 0
KPA1 091647Z 33008KT 04/M04 A3038 RMK A01 T00411043  RH  054%=      5-min Rain = 0
KPA1 091648Z 35008KT 04/M04 A3038 RMK A01 T00421043  RH  054%=      5-min Rain = 0
KPA1 091649Z 33008KT 04/M04 A3038 RMK A01 T00431042  RH  054%=      5-min Rain = 0
KPA1 091650Z 32008KT 04/M05 A3038 RMK A01 T00421045  RH  053%=      5-min Rain = 0
KPA1 091651Z 33006KT 04/M04 A3038 RMK A01 T00411044  RH  054%=      5-min Rain = 0
KPA1 091652Z 32006KT 04/M04 A3038 RMK A01 T00441039  RH  055%=      5-min Rain = 0
KPA1 091653Z 33008KT 05/M04 A3038 RMK A01 T00461041  RH  053%=      5-min Rain = 0
KPA1 091654Z 33010KT 05/M04 A3038 RMK A01 T00461043  RH  053%=      5-min Rain = 0
KPA1 091655Z 34008KT 05/M04 A3038 RMK A01 T00451044  RH  052%=      5-min Rain = 0
KPA1 091656Z 33008KT 05/M04 A3038 RMK A01 T00451044  RH  052%=      5-min Rain = 0
KPA1 091657Z 33007KT 05/M04 A3038 RMK A01 T00451042  RH  053%=      5-min Rain = 0
KPA1 091658Z 33007KT 05/M04 A3038 RMK A01 T00481041  RH  053%=      5-min Rain = 0
KPA1 091659Z 34006KT 05/M04 A3038 RMK A01 T00481043  RH  052%=      5-min Rain = 0
KPA1 091700Z 34008KT 05/M05 A3038 RMK A01 T00471045  RH  051%=      5-min Rain = 0
KPA1 091701Z 34009KT 05/M05 A3038 RMK A01 T00461045  RH  052%=      5-min Rain = 0
KPA1 091702Z 34009KT 05/M05 A3038 RMK A01 T00461045  RH  052%=      5-min Rain = 0
KPA1 091703Z 34009KT 05/M05 A3038 RMK A01 T00471045  RH  051%=      5-min Rain = 0
KPA1 091704Z 34007KT 05/M05 A3038 RMK A01 T00471045  RH  052%=      5-min Rain = 0
KPA1 091705Z 35009KT 05/M05 A3038 RMK A01 T00471045  RH  051%=      5-min Rain = 0
KPA1 091706Z 35009KT 05/M05 A3038 RMK A01 T00471045  RH  051%=      5-min Rain = 0
KPA1 091707Z 34009KT 05/M05 A3038 RMK A01 T00471046  RH  051%=      5-min Rain = 0
KPA1 091708Z 35008KT 05/M05 A3038 RMK A01 T00461046  RH  051%=      5-min Rain = 0
KPA1 091709Z 34009KT 05/M05 A3038 RMK A01 T00461045  RH  052%=      5-min Rain = 0
KPA1 091710Z 34009KT 05/M05 A3038 RMK A01 T00461046  RH  051%=      5-min Rain = 0
KPA1 091711Z 36010KT 05/M04 A3038 RMK A01 T00471044  RH  052%=      5-min Rain = 0
KPA1 091712Z 35009KT 05/M04 A3038 RMK A01 T00481044  RH  051%=      5-min Rain = 0
KPA1 091713Z 35008KT 05/M04 A3037 RMK A01 T00491044  RH  051%=      5-min Rain = 0
KPA1 091714Z 34008KT 05/M04 A3037 RMK A01 T00491043  RH  051%=      5-min Rain = 0
KPA1 091715Z 34010KT 05/M04 A3037 RMK A01 T00491044  RH  051%=      5-min Rain = 0
KPA1 091716Z 34010KT 05/M04 A3037 RMK A01 T00491044  RH  051%=      5-min Rain = 0
KPA1 091717Z 33008KT 05/M04 A3037 RMK A01 T00491044  RH  051%=      5-min Rain = 0
KPA1 091718Z 34007KT 05/M04 A3037 RMK A01 T00481044  RH  051%=      5-min Rain = 0
KPA1 091719Z 00010KT 05/M04 A3037 RMK A01 T00511041  RH  051%=      5-min Rain = 0
KPA1 091720Z 01010KT 05/M04 A3037 RMK A01 T00521044  RH  050%=      5-min Rain = 0
KPA1 091721Z 00009KT 05/M05 A3037 RMK A01 T00511046  RH  050%=      5-min Rain = 0
KPA1 091722Z 01008KT 05/M05 A3037 RMK A01 T00491046  RH  050%=      5-min Rain = 0
KPA1 091723Z 01008KT 05/M04 A3037 RMK A01 T00511043  RH  051%=      5-min Rain = 0
KPA1 091724Z 00010KT 05/M04 A3037 RMK A01 T00511044  RH  050%=      5-min Rain = 0
KPA1 091725Z 35009KT 05/M05 A3037 RMK A01 T00511045  RH  050%=      5-min Rain = 0
KPA1 091726Z 34009KT 05/M04 A3037 RMK A01 T00521044  RH  050%=      5-min Rain = 0
KPA1 091727Z 35008KT 05/M04 A3037 RMK A01 T00531043  RH  050%=      5-min Rain = 0
KPA1 091728Z 01008KT 06/M04 A3037 RMK A01 T00551042  RH  050%=      5-min Rain = 0
KPA1 091729Z 36007KT 06/M04 A3037 RMK A01 T00561043  RH  049%=      5-min Rain = 0
KPA1 091730Z 36007KT 06/M05 A3037 RMK A01 T00551045  RH  048%=      5-min Rain = 0
KPA1 091731Z 35007KT 05/M04 A3037 RMK A01 T00541044  RH  049%=      5-min Rain = 0
KPA1 091732Z 33009KT 06/M04 A3037 RMK A01 T00571040  RH  050%=      5-min Rain = 0
KPA1 091733Z 34009KT 06/M05 A3037 RMK A01 T00581045  RH  048%=      5-min Rain = 0
KPA1 091734Z 36009KT 06/M05 A3037 RMK A01 T00551047  RH  048%=      5-min Rain = 0
KPA1 091735Z 00009KT 05/M05 A3037 RMK A01 T00531048  RH  048%=      5-min Rain = 0
KPA1 091736Z 35008KT 05/M05 A3037 RMK A01 T00531047  RH  049%=      5-min Rain = 0
KPA1 091737Z 35007KT 05/M05 A3037 RMK A01 T00541046  RH  049%=      5-min Rain = 0
KPA1 091738Z 33009KT 05/M05 A3037 RMK A01 T00521048  RH  048%=      5-min Rain = 0
KPA1 091739Z 34009KT 05/M05 A3037 RMK A01 T00521047  RH  049%=      5-min Rain = 0
KPA1 091740Z 34008KT 05/M05 A3037 RMK A01 T00511047  RH  049%=      5-min Rain = 0
KPA1 091741Z 34008KT 05/M05 A3037 RMK A01 T00511045  RH  050%=      5-min Rain = 0
KPA1 091742Z 01006KT 05/M04 A3037 RMK A01 T00541043  RH  050%=      5-min Rain = 0
KPA1 091743Z 01009KT 06/M04 A3037 RMK A01 T00561043  RH  049%=      5-min Rain = 0
KPA1 091744Z 02009KT 06/M05 A3037 RMK A01 T00571045  RH  048%=      5-min Rain = 0
KPA1 091745Z 02008KT 06/M05 A3037 RMK A01 T00581046  RH  047%=      5-min Rain = 0
KPA1 091746Z 00008KT 06/M05 A3037 RMK A01 T00571048  RH  047%=      5-min Rain = 0
KPA1 091747Z 36007KT 06/M05 A3037 RMK A01 T00561048  RH  047%=      5-min Rain = 0
KPA1 091748Z 01007KT 06/M05 A3037 RMK A01 T00551046  RH  048%=      5-min Rain = 0
KPA1 091749Z 00008KT 06/M05 A3037 RMK A01 T00551046  RH  048%=      5-min Rain = 0
KPA1 091750Z 34007KT 06/M05 A3037 RMK A01 T00551046  RH  048%=      5-min Rain = 0
KPA1 091751Z 34009KT 06/M05 A3037 RMK A01 T00561045  RH  048%=      5-min Rain = 0
KPA1 091752Z 34008KT 06/M04 A3037 RMK A01 T00571043  RH  049%=      5-min Rain = 0
KPA1 091753Z 33009KT 06/M04 A3037 RMK A01 T00601041  RH  048%=      5-min Rain = 0
KPA1 091754Z 35007KT 06/M05 A3037 RMK A01 T00601045  RH  047%=      5-min Rain = 0
KPA1 091755Z 35005KT 06/M05 A3037 RMK A01 T00581045  RH  047%=      5-min Rain = 0
KPA1 091756Z 34007KT 06/M05 A3037 RMK A01 T00581045  RH  048%=      5-min Rain = 0
KPA1 091757Z 34006KT 06/M04 A3037 RMK A01 T00591043  RH  048%=      5-min Rain = 0
KPA1 091758Z 35004KT 06/M05 A3037 RMK A01 T00581045  RH  047%=      5-min Rain = 0
KPA1 091759Z 35004KT 06/M05 A3036 RMK A01 T00581045  RH  047%=      5-min Rain = 0
KPA1 091800Z 01006KT 06/M04 A3036 RMK A01 T00591044  RH  048%=      5-min Rain = 0
KPA1 091801Z 01007KT 06/M05 A3036 RMK A01 T00591047  RH  046%=      5-min Rain = 0
KPA1 091802Z 02005KT 06/M05 A3036 RMK A01 T00591048  RH  046%=      5-min Rain = 0
KPA1 091803Z 00008KT 06/M04 A3036 RMK A01 T00591044  RH  047%=      5-min Rain = 0
KPA1 091804Z 34008KT 06/M05 A3036 RMK A01 T00601045  RH  047%=      5-min Rain = 0
KPA1 091805Z 34008KT 06/M04 A3036 RMK A01 T00611044  RH  047%=      5-min Rain = 0
KPA1 091806Z 33007KT 06/M05 A3036 RMK A01 T00611046  RH  046%=      5-min Rain = 0
KPA1 091807Z 33007KT 06/M05 A3036 RMK A01 T00601048  RH  046%=      5-min Rain = 0
KPA1 091808Z 35007KT 06/M05 A3036 RMK A01 T00601045  RH  047%=      5-min Rain = 0
KPA1 091809Z 35006KT 06/M04 A3036 RMK A01 T00631044  RH  046%=      5-min Rain = 0
KPA1 091810Z 33006KT 07/M04 A3036 RMK A01 T00651043  RH  046%=      5-min Rain = 0
KPA1 091811Z 33006KT 07/M05 A3036 RMK A01 T00661045  RH  045%=      5-min Rain = 0
KPA1 091812Z 35007KT 07/M05 A3036 RMK A01 T00661045  RH  045%=      5-min Rain = 0
KPA1 091813Z 35006KT 07/M05 A3036 RMK A01 T00661046  RH  045%=      5-min Rain = 0
KPA1 091814Z 35008KT 07/M05 A3036 RMK A01 T00651046  RH  045%=      5-min Rain = 0
KPA1 091815Z 34008KT 06/M05 A3036 RMK A01 T00631047  RH  045%=      5-min Rain = 0
KPA1 091816Z 34008KT 06/M05 A3036 RMK A01 T00631045  RH  046%=      5-min Rain = 0
KPA1 091817Z 33006KT 06/M05 A3036 RMK A01 T00631047  RH  045%=      5-min Rain = 0
KPA1 091818Z 00006KT 06/M05 A3036 RMK A01 T00611049  RH  045%=      5-min Rain = 0
KPA1 091819Z 00006KT 06/M05 A3036 RMK A01 T00621048  RH  045%=      5-min Rain = 0
KPA1 091820Z 01006KT 06/M05 A3035 RMK A01 T00621048  RH  045%=      5-min Rain = 0
KPA1 091821Z 02008KT 06/M05 A3035 RMK A01 T00631046  RH  045%=      5-min Rain = 0
KPA1 091822Z 01007KT 06/M05 A3035 RMK A01 T00641046  RH  045%=      5-min Rain = 0
KPA1 091823Z 35006KT 06/M05 A3035 RMK A01 T00641045  RH  046%=      5-min Rain = 0
KPA1 091824Z 00006KT 07/M04 A3035 RMK A01 T00651044  RH  046%=      5-min Rain = 0
KPA1 091825Z 36008KT 07/M05 A3035 RMK A01 T00661045  RH  045%=      5-min Rain = 0
KPA1 091826Z 36008KT 07/M05 A3035 RMK A01 T00671046  RH  044%=      5-min Rain = 0
KPA1 091827Z 01007KT 07/M05 A3035 RMK A01 T00671047  RH  044%=      5-min Rain = 0
KPA1 091828Z 02006KT 07/M05 A3035 RMK A01 T00661048  RH  044%=      5-min Rain = 0
KPA1 091829Z 33006KT 07/M05 A3034 RMK A01 T00671045  RH  045%=      5-min Rain = 0
KPA1 091830Z 34006KT 07/M05 A3034 RMK A01 T00681047  RH  044%=      5-min Rain = 0
KPA1 091831Z 00006KT 07/M05 A3034 RMK A01 T00651050  RH  044%=      5-min Rain = 0
KPA1 091832Z 36008KT 07/M05 A3034 RMK A01 T00651046  RH  045%=      5-min Rain = 0
KPA1 091833Z 35007KT 07/M05 A3034 RMK A01 T00661048  RH  044%=      5-min Rain = 0
KPA1 091834Z 34005KT 07/M05 A3034 RMK A01 T00661047  RH  044%=      5-min Rain = 0
KPA1 091835Z 34007KT 07/M05 A3034 RMK A01 T00661048  RH  044%=      5-min Rain = 0
KPA1 091836Z 34005KT 07/M05 A3034 RMK A01 T00671048  RH  044%=      5-min Rain = 0
KPA1 091837Z 01007KT 07/M05 A3034 RMK A01 T00661048  RH  044%=      5-min Rain = 0
KPA1 091838Z 02008KT 07/M05 A3034 RMK A01 T00671045  RH  044%=      5-min Rain = 0
KPA1 091839Z 02007KT 07/M05 A3034 RMK A01 T00691047  RH  043%=      5-min Rain = 0
KPA1 091840Z 01006KT 07/M05 A3034 RMK A01 T00681050  RH  043%=      5-min Rain = 0
KPA1 091841Z 03004KT 07/M05 A3034 RMK A01 T00661050  RH  043%=      5-min Rain = 0
KPA1 091842Z 01006KT 07/M05 A3034 RMK A01 T00671047  RH  044%=      5-min Rain = 0
KPA1 091843Z 02006KT 07/M05 A3034 RMK A01 T00691048  RH  043%=      5-min Rain = 0
KPA1 091844Z 02006KT 07/M05 A3034 RMK A01 T00691049  RH  043%=      5-min Rain = 0
KPA1 091845Z 01007KT 07/M05 A3034 RMK A01 T00681050  RH  042%=      5-min Rain = 0
KPA1 091846Z 02006KT 07/M05 A3034 RMK A01 T00661051  RH  043%=      5-min Rain = 0
KPA1 091847Z 01008KT 07/M05 A3034 RMK A01 T00671049  RH  044%=      5-min Rain = 0
KPA1 091848Z 00005KT 07/M05 A3034 RMK A01 T00671048  RH  044%=      5-min Rain = 0
KPA1 091849Z 00006KT 07/M05 A3034 RMK A01 T00681048  RH  043%=      5-min Rain = 0
KPA1 091850Z 35004KT 07/M05 A3033 RMK A01 T00681049  RH  043%=      5-min Rain = 0
KPA1 091851Z 00003KT 07/M05 A3033 RMK A01 T00671051  RH  043%=      5-min Rain = 0
KPA1 091852Z 32004KT 07/M05 A3033 RMK A01 T00671050  RH  043%=      5-min Rain = 0
KPA1 091853Z 34007KT 07/M05 A3033 RMK A01 T00681049  RH  043%=      5-min Rain = 0
KPA1 091854Z 34006KT 07/M05 A3033 RMK A01 T00691049  RH  043%=      5-min Rain = 0
KPA1 091855Z 35005KT 07/M05 A3033 RMK A01 T00681051  RH  043%=      5-min Rain = 0
KPA1 091856Z 32005KT 07/M05 A3033 RMK A01 T00661051  RH  043%=      5-min Rain = 0
KPA1 091857Z 32005KT 07/M05 A3033 RMK A01 T00671050  RH  043%=      5-min Rain = 0
KPA1 091858Z 35008KT 07/M05 A3033 RMK A01 T00671051  RH  043%=      5-min Rain = 0
KPA1 091859Z 35007KT 07/M05 A3033 RMK A01 T00701048  RH  043%=      5-min Rain = 0
KPA1 091900Z 35006KT 07/M05 A3033 RMK A01 T00701048  RH  043%=      5-min Rain = 0
KPA1 091901Z 33004KT 07/M05 A3033 RMK A01 T00701048  RH  043%=      5-min Rain = 0
KPA1 091902Z 34002KT 07/M05 A3033 RMK A01 T00711048  RH  043%=      5-min Rain = 0
KPA1 091903Z 34004KT 07/M05 A3033 RMK A01 T00721045  RH  043%=      5-min Rain = 0
KPA1 091904Z 34008KT 07/M05 A3033 RMK A01 T00741046  RH  042%=      5-min Rain = 0
KPA1 091905Z 35007KT 07/M05 A3033 RMK A01 T00721049  RH  042%=      5-min Rain = 0
KPA1 091906Z 35007KT 07/M05 A3033 RMK A01 T00701050  RH  042%=      5-min Rain = 0
KPA1 091907Z 35006KT 07/M05 A3033 RMK A01 T00701050  RH  042%=      5-min Rain = 0
KPA1 091908Z 34006KT 07/M05 A3033 RMK A01 T00701051  RH  042%=      5-min Rain = 0
KPA1 091909Z 35004KT 07/M05 A3033 RMK A01 T00691051  RH  042%=      5-min Rain = 0
KPA1 091910Z 34004KT 07/M05 A3033 RMK A01 T00691051  RH  042%=      5-min Rain = 0
KPA1 091911Z 34004KT 07/M05 A3033 RMK A01 T00711050  RH  042%=      5-min Rain = 0
KPA1 091912Z 32004KT 07/M05 A3033 RMK A01 T00721050  RH  041%=      5-min Rain = 0
KPA1 091913Z 34005KT 07/M05 A3033 RMK A01 T00741048  RH  042%=      5-min Rain = 0
KPA1 091914Z 01007KT 08/M05 A3033 RMK A01 T00751049  RH  041%=      5-min Rain = 0
KPA1 091915Z 02004KT 07/M05 A3033 RMK A01 T00721053  RH  040%=      5-min Rain = 0
KPA1 091916Z 03004KT 07/M05 A3033 RMK A01 T00721052  RH  041%=      5-min Rain = 0
KPA1 091917Z 01006KT 07/M05 A3033 RMK A01 T00731050  RH  041%=      5-min Rain = 0
KPA1 091918Z 35005KT 07/M05 A3033 RMK A01 T00741051  RH  041%=      5-min Rain = 0
KPA1 091919Z 34003KT 07/M05 A3033 RMK A01 T00741051  RH  041%=      5-min Rain = 0
KPA1 091920Z 33003KT 07/M05 A3033 RMK A01 T00741052  RH  040%=      5-min Rain = 0
KPA1 091921Z 35006KT 07/M05 A3033 RMK A01 T00741052  RH  040%=      5-min Rain = 0
KPA1 091922Z 34005KT 08/M05 A3033 RMK A01 T00751053  RH  040%=      5-min Rain = 0
KPA1 091923Z 00003KT 07/M06 A3033 RMK A01 T00741055  RH  040%=      5-min Rain = 0
KPA1 091924Z 02004KT 07/M06 A3033 RMK A01 T00741055  RH  040%=      5-min Rain = 0
KPA1 091925Z 02006KT 08/M05 A3033 RMK A01 T00751053  RH  040%=      5-min Rain = 0
KPA1 091926Z 00005KT 08/M05 A3033 RMK A01 T00771052  RH  040%=      5-min Rain = 0
KPA1 091927Z 02006KT 08/M05 A3033 RMK A01 T00761053  RH  040%=      5-min Rain = 0
KPA1 091928Z 03007KT 08/M05 A3033 RMK A01 T00761051  RH  040%=      5-min Rain = 0
KPA1 091929Z 02007KT 08/M05 A3033 RMK A01 T00771051  RH  040%=      5-min Rain = 0
KPA1 091930Z 03004KT 08/M05 A3033 RMK A01 T00771051  RH  040%=      5-min Rain = 0
KPA1 091931Z 04004KT 08/M05 A3033 RMK A01 T00771051  RH  040%=      5-min Rain = 0
KPA1 091932Z 03005KT 08/M05 A3033 RMK A01 T00761052  RH  040%=      5-min Rain = 0
KPA1 091933Z 04006KT 08/M05 A3033 RMK A01 T00761052  RH  040%=      5-min Rain = 0
KPA1 091934Z 04006KT 08/M05 A3033 RMK A01 T00761053  RH  039%=      5-min Rain = 0
KPA1 091935Z 03006KT 08/M05 A3033 RMK A01 T00761053  RH  040%=      5-min Rain = 0
KPA1 091936Z 02005KT 08/M05 A3033 RMK A01 T00771053  RH  039%=      5-min Rain = 0
KPA1 091937Z 01006KT 08/M06 A3033 RMK A01 T00761055  RH  039%=      5-min Rain = 0
KPA1 091938Z 01004KT 08/M05 A3033 RMK A01 T00751054  RH  039%=      5-min Rain = 0
KPA1 091939Z 01004KT 08/M05 A3033 RMK A01 T00751053  RH  040%=      5-min Rain = 0
KPA1 091940Z 00003KT 08/M05 A3032 RMK A01 T00761052  RH  040%=      5-min Rain = 0
KPA1 091941Z 01004KT 08/M05 A3032 RMK A01 T00771053  RH  039%=      5-min Rain = 0
KPA1 091942Z 02004KT 08/M05 A3032 RMK A01 T00761053  RH  039%=      5-min Rain = 0
KPA1 091943Z 03003KT 08/M05 A3032 RMK A01 T00781050  RH  040%=      5-min Rain = 0
KPA1 091944Z 04003KT 08/M05 A3032 RMK A01 T00801051  RH  039%=      5-min Rain = 0
KPA1 091945Z 03004KT 08/M05 A3032 RMK A01 T00811052  RH  038%=      5-min Rain = 0
KPA1 091946Z 01005KT 08/M05 A3032 RMK A01 T00801053  RH  038%=      5-min Rain = 0
KPA1 091947Z 01005KT 08/M05 A3032 RMK A01 T00791054  RH  038%=      5-min Rain = 0
KPA1 091948Z 01004KT 08/M06 A3032 RMK A01 T00781055  RH  038%=      5-min Rain = 0
KPA1 091949Z 01004KT 08/M06 A3032 RMK A01 T00771057  RH  038%=      5-min Rain = 0
KPA1 091950Z 35002KT 08/M06 A3032 RMK A01 T00771056  RH  038%=      5-min Rain = 0
KPA1 091951Z 35001KT 08/M06 A3032 RMK A01 T00761055  RH  039%=      5-min Rain = 0
KPA1 091952Z 35002KT 08/M05 A3032 RMK A01 T00781052  RH  039%=      5-min Rain = 0
KPA1 091953Z 01005KT 08/M05 A3032 RMK A01 T00811053  RH  038%=      5-min Rain = 0
KPA1 091954Z 02005KT 08/M06 A3032 RMK A01 T00811056  RH  037%=      5-min Rain = 0
KPA1 091955Z 01005KT 08/M06 A3032 RMK A01 T00811056  RH  038%=      5-min Rain = 0
KPA1 091956Z 02005KT 08/M06 A3032 RMK A01 T00801056  RH  037%=      5-min Rain = 0
KPA1 091957Z 01003KT 08/M06 A3032 RMK A01 T00791055  RH  038%=      5-min Rain = 0
KPA1 091958Z 05002KT 08/M06 A3032 RMK A01 T00811055  RH  038%=      5-min Rain = 0
KPA1 091959Z 02002KT 08/M06 A3032 RMK A01 T00811055  RH  038%=      5-min Rain = 0
KPA1 092000Z 36003KT 08/M05 A3032 RMK A01 T00831053  RH  037%=      5-min Rain = 0
KPA1 092001Z 00005KT 08/M06 A3032 RMK A01 T00841059  RH  036%=      5-min Rain = 0
KPA1 092002Z 01004KT 08/M06 A3032 RMK A01 T00841062  RH  035%=      5-min Rain = 0
KPA1 092003Z 00004KT 08/M06 A3032 RMK A01 T00821064  RH  035%=      5-min Rain = 0
KPA1 092004Z 00003KT 08/M06 A3032 RMK A01 T00821062  RH  035%=      5-min Rain = 0
KPA1 092005Z 02001KT 08/M06 A3032 RMK A01 T00821062  RH  035%=      5-min Rain = 0
KPA1 092006Z 00004KT 08/M06 A3032 RMK A01 T00821062  RH  036%=      5-min Rain = 0
KPA1 092007Z 01004KT 08/M06 A3032 RMK A01 T00831057  RH  037%=      5-min Rain = 0
KPA1 092008Z 01004KT 08/M06 A3032 RMK A01 T00831057  RH  037%=      5-min Rain = 0
KPA1 092009Z 00004KT 08/M06 A3032 RMK A01 T00821057  RH  037%=      5-min Rain = 0
KPA1 092010Z 33002KT 08/M06 A3031 RMK A01 T00821056  RH  037%=      5-min Rain = 0
KPA1 092011Z 03002KT 08/M06 A3031 RMK A01 T00821056  RH  037%=      5-min Rain = 0
KPA1 092012Z 05003KT 08/M06 A3031 RMK A01 T00831055  RH  037%=      5-min Rain = 0
KPA1 092013Z 03002KT 08/M06 A3031 RMK A01 T00831056  RH  037%=      5-min Rain = 0
KPA1 092014Z 01002KT 08/M06 A3031 RMK A01 T00831057  RH  037%=      5-min Rain = 0
KPA1 092015Z 35002KT 08/M06 A3031 RMK A01 T00831056  RH  037%=      5-min Rain = 0
KPA1 092016Z 04004KT 08/M06 A3031 RMK A01 T00841056  RH  037%=      5-min Rain = 0
KPA1 092017Z 03004KT 08/M06 A3032 RMK A01 T00841061  RH  035%=      5-min Rain = 0
KPA1 092018Z 04003KT 09/M06 A3032 RMK A01 T00851060  RH  035%=      5-min Rain = 0
KPA1 092019Z 03003KT 09/M06 A3032 RMK A01 T00861058  RH  036%=      5-min Rain = 0
KPA1 092020Z 00005KT 09/M06 A3032 RMK A01 T00861059  RH  035%=      5-min Rain = 0
KPA1 092021Z 33006KT 09/M06 A3032 RMK A01 T00861061  RH  035%=      5-min Rain = 0
KPA1 092022Z 32004KT 09/M07 A3031 RMK A01 T00851065  RH  034%=      5-min Rain = 0
KPA1 092023Z 33003KT 08/M07 A3031 RMK A01 T00841066  RH  034%=      5-min Rain = 0
KPA1 092024Z 01005KT 09/M06 A3031 RMK A01 T00851063  RH  034%=      5-min Rain = 0
KPA1 092025Z 01004KT 09/M06 A3031 RMK A01 T00861064  RH  034%=      5-min Rain = 0
KPA1 092026Z 02001KT 09/M07 A3031 RMK A01 T00851065  RH  034%=      5-min Rain = 0
KPA1 092027Z 36003KT 09/M07 A3031 RMK A01 T00861065  RH  034%=      5-min Rain = 0
KPA1 092028Z 34004KT 09/M06 A3032 RMK A01 T00871064  RH  034%=      5-min Rain = 0
KPA1 092029Z 34006KT 09/M07 A3032 RMK A01 T00881067  RH  033%=      5-min Rain = 0
KPA1 092030Z 35006KT 09/M07 A3032 RMK A01 T00881067  RH  033%=      5-min Rain = 0
KPA1 092031Z 01006KT 09/M07 A3032 RMK A01 T00861070  RH  032%=      5-min Rain = 0
KPA1 092032Z 02009KT 09/M07 A3032 RMK A01 T00861070  RH  032%=      5-min Rain = 0
KPA1 092033Z 02005KT 09/M07 A3032 RMK A01 T00871071  RH  032%=      5-min Rain = 0
KPA1 092034Z 02006KT 09/M07 A3032 RMK A01 T00891070  RH  032%=      5-min Rain = 0
KPA1 092035Z 02006KT 09/M07 A3032 RMK A01 T00901072  RH  031%=      5-min Rain = 0
KPA1 092036Z 03005KT 09/M08 A3032 RMK A01 T00891075  RH  031%=      5-min Rain = 0
KPA1 092037Z 02003KT 09/M07 A3032 RMK A01 T00891073  RH  031%=      5-min Rain = 0
KPA1 092038Z 04001KT 09/M07 A3032 RMK A01 T00871074  RH  031%=      5-min Rain = 0
KPA1 092039Z 05003KT 09/M08 A3032 RMK A01 T00871075  RH  031%=      5-min Rain = 0
KPA1 092040Z 00006KT 09/M07 A3032 RMK A01 T00891069  RH  032%=      5-min Rain = 0
KPA1 092041Z 35005KT 09/M07 A3032 RMK A01 T00901069  RH  032%=      5-min Rain = 0
KPA1 092042Z 35003KT 09/M07 A3032 RMK A01 T00901068  RH  032%=      5-min Rain = 0
KPA1 092043Z 34003KT 09/M07 A3032 RMK A01 T00891070  RH  032%=      5-min Rain = 0
KPA1 092044Z 00003KT 09/M07 A3032 RMK A01 T00891069  RH  032%=      5-min Rain = 0
KPA1 092045Z 01003KT 09/M07 A3032 RMK A01 T00891070  RH  032%=      5-min Rain = 0
KPA1 092046Z 01003KT 09/M07 A3032 RMK A01 T00891069  RH  032%=      5-min Rain = 0
KPA1 092047Z 01005KT 09/M07 A3032 RMK A01 T00881069  RH  032%=      5-min Rain = 0
KPA1 092048Z 01007KT 09/M07 A3032 RMK A01 T00891069  RH  032%=      5-min Rain = 0
KPA1 092049Z 00006KT 09/M07 A3032 RMK A01 T00891072  RH  031%=      5-min Rain = 0
KPA1 092050Z 00005KT 09/M07 A3032 RMK A01 T00881072  RH  031%=      5-min Rain = 0
KPA1 092051Z 36005KT 09/M07 A3032 RMK A01 T00901071  RH  031%=      5-min Rain = 0
KPA1 092052Z 00006KT 09/M07 A3032 RMK A01 T00901072  RH  031%=      5-min Rain = 0
KPA1 092053Z 01006KT 09/M07 A3032 RMK A01 T00901072  RH  031%=      5-min Rain = 0
KPA1 092054Z 03004KT 09/M07 A3032 RMK A01 T00901072  RH  031%=      5-min Rain = 0
KPA1 092055Z 03002KT 09/M07 A3032 RMK A01 T00901071  RH  031%=      5-min Rain = 0
KPA1 092056Z 04001KT 09/M07 A3032 RMK A01 T00901070  RH  032%=      5-min Rain = 0
KPA1 092057Z 03002KT 09/M07 A3032 RMK A01 T00911070  RH  031%=      5-min Rain = 0
KPA1 092058Z 04003KT 09/M07 A3032 RMK A01 T00911072  RH  031%=      5-min Rain = 0
KPA1 092059Z 00004KT 09/M07 A3032 RMK A01 T00911072  RH  031%=      5-min Rain = 0
KPA1 092100Z 35004KT 09/M07 A3032 RMK A01 T00911072  RH  031%=      5-min Rain = 0
KPA1 092101Z 35005KT 09/M07 A3032 RMK A01 T00911070  RH  031%=      5-min Rain = 0
KPA1 092102Z 01007KT 09/M07 A3032 RMK A01 T00931069  RH  031%=      5-min Rain = 0
KPA1 092103Z 02007KT 10/M07 A3032 RMK A01 T00951071  RH  030%=      5-min Rain = 0
KPA1 092104Z 02006KT 09/M07 A3032 RMK A01 T00941073  RH  030%=      5-min Rain = 0
KPA1 092105Z 02006KT 09/M07 A3032 RMK A01 T00931072  RH  030%=      5-min Rain = 0
KPA1 092106Z 02005KT 09/M07 A3032 RMK A01 T00941072  RH  030%=      5-min Rain = 0
KPA1 092107Z 03006KT 09/M07 A3032 RMK A01 T00941071  RH  030%=      5-min Rain = 0
KPA1 092108Z 03006KT 09/M07 A3032 RMK A01 T00941073  RH  030%=      5-min Rain = 0
KPA1 092109Z 34005KT 09/M07 A3032 RMK A01 T00941073  RH  030%=      5-min Rain = 0
KPA1 092110Z 36007KT 10/M07 A3032 RMK A01 T00951073  RH  030%=      5-min Rain = 0
KPA1 092111Z 00008KT 10/M08 A3032 RMK A01 T00951075  RH  029%=      5-min Rain = 0
KPA1 092112Z 36008KT 09/M08 A3032 RMK A01 T00941077  RH  029%=      5-min Rain = 0
KPA1 092113Z 34008KT 09/M08 A3032 RMK A01 T00931076  RH  030%=      5-min Rain = 0
KPA1 092114Z 35007KT 09/M08 A3032 RMK A01 T00941075  RH  030%=      5-min Rain = 0
KPA1 092115Z 01005KT 09/M07 A3032 RMK A01 T00941074  RH  030%=      5-min Rain = 0
KPA1 092116Z 02004KT 09/M08 A3032 RMK A01 T00941076  RH  029%=      5-min Rain = 0
KPA1 092117Z 02004KT 09/M07 A3032 RMK A01 T00941074  RH  030%=      5-min Rain = 0
KPA1 092118Z 02004KT 09/M08 A3032 RMK A01 T00941075  RH  029%=      5-min Rain = 0
KPA1 092119Z 02005KT 09/M08 A3032 RMK A01 T00941075  RH  030%=      5-min Rain = 0
KPA1 092120Z 02005KT 09/M07 A3032 RMK A01 T00931074  RH  030%=      5-min Rain = 0
KPA1 092121Z 36004KT 09/M08 A3032 RMK A01 T00931075  RH  030%=      5-min Rain = 0
KPA1 092122Z 35003KT 09/M08 A3031 RMK A01 T00921077  RH  029%=      5-min Rain = 0
KPA1 092123Z 00004KT 09/M08 A3031 RMK A01 T00911077  RH  030%=      5-min Rain = 0
KPA1 092124Z 01003KT 09/M08 A3031 RMK A01 T00911076  RH  030%=      5-min Rain = 0
KPA1 092125Z 36006KT 09/M08 A3031 RMK A01 T00921075  RH  030%=      5-min Rain = 0
KPA1 092126Z 02008KT 09/M07 A3031 RMK A01 T00941074  RH  030%=      5-min Rain = 0
KPA1 092127Z 04006KT 10/M08 A3031 RMK A01 T00951079  RH  029%=      5-min Rain = 0
KPA1 092128Z 04006KT 10/M08 A3031 RMK A01 T00951078  RH  029%=      5-min Rain = 0
KPA1 092129Z 04004KT 10/M08 A3031 RMK A01 T00951078  RH  029%=      5-min Rain = 0
KPA1 092130Z 05004KT 10/M08 A3031 RMK A01 T00961079  RH  028%=      5-min Rain = 0
KPA1 092131Z 05004KT 10/M08 A3031 RMK A01 T00961078  RH  028%=      5-min Rain = 0
KPA1 092132Z 03004KT 10/M08 A3031 RMK A01 T00951081  RH  028%=      5-min Rain = 0
KPA1 092133Z 03007KT 10/M08 A3031 RMK A01 T00951079  RH  028%=      5-min Rain = 0
KPA1 092134Z 03006KT 10/M08 A3031 RMK A01 T00951082  RH  028%=      5-min Rain = 0
KPA1 092135Z 02006KT 09/M08 A3031 RMK A01 T00941082  RH  028%=      5-min Rain = 0
KPA1 092136Z 03004KT 09/M08 A3031 RMK A01 T00941082  RH  028%=      5-min Rain = 0
KPA1 092137Z 36003KT 09/M08 A3031 RMK A01 T00941082  RH  028%=      5-min Rain = 0
KPA1 092138Z 00004KT 10/M08 A3031 RMK A01 T00951080  RH  028%=      5-min Rain = 0
KPA1 092139Z 00004KT 10/M08 A3031 RMK A01 T00961079  RH  028%=      5-min Rain = 0
KPA1 092140Z 36006KT 10/M08 A3031 RMK A01 T00971077  RH  029%=      5-min Rain = 0
KPA1 092141Z 00006KT 10/M08 A3031 RMK A01 T00981077  RH  028%=      5-min Rain = 0
KPA1 092142Z 36006KT 10/M08 A3032 RMK A01 T00961080  RH  028%=      5-min Rain = 0
KPA1 092143Z 35008KT 10/M08 A3032 RMK A01 T00951081  RH  028%=      5-min Rain = 0
KPA1 092144Z 34007KT 09/M08 A3032 RMK A01 T00931083  RH  028%=      5-min Rain = 0
KPA1 092145Z 33006KT 09/M08 A3032 RMK A01 T00921083  RH  028%=      5-min Rain = 0
KPA1 092146Z 35008KT 09/M08 A3032 RMK A01 T00911083  RH  028%=      5-min Rain = 0
KPA1 092147Z 01008KT 09/M08 A3032 RMK A01 T00911081  RH  029%=      5-min Rain = 0
KPA1 092148Z 01008KT 09/M08 A3032 RMK A01 T00911082  RH  029%=      5-min Rain = 0
KPA1 092149Z 00006KT 09/M08 A3032 RMK A01 T00911083  RH  028%=      5-min Rain = 0
KPA1 092150Z 02007KT 09/M08 A3032 RMK A01 T00901083  RH  029%=      5-min Rain = 0
KPA1 092151Z 36005KT 09/M08 A3032 RMK A01 T00891083  RH  029%=      5-min Rain = 0
KPA1 092152Z 36005KT 09/M08 A3032 RMK A01 T00891082  RH  029%=      5-min Rain = 0
KPA1 092153Z 36005KT 09/M08 A3032 RMK A01 T00891082  RH  029%=      5-min Rain = 0
KPA1 092154Z 00005KT 09/M08 A3032 RMK A01 T00891082  RH  029%=      5-min Rain = 0
KPA1 092155Z 02006KT 09/M08 A3032 RMK A01 T00891083  RH  029%=      5-min Rain = 0
KPA1 092156Z 02006KT 09/M08 A3032 RMK A01 T00901083  RH  029%=      5-min Rain = 0
KPA1 092157Z 02006KT 09/M08 A3032 RMK A01 T00911081  RH  029%=      5-min Rain = 0
KPA1 092158Z 02006KT 09/M08 A3031 RMK A01 T00921082  RH  028%=      5-min Rain = 0
KPA1 092159Z 02004KT 09/M08 A3031 RMK A01 T00921084  RH  028%=      5-min Rain = 0
KPA1 092200Z 02005KT 09/M08 A3031 RMK A01 T00921083  RH  028%=      5-min Rain = 0
KPA1 092201Z 01006KT 09/M08 A3031 RMK A01 T00931083  RH  028%=      5-min Rain = 0
KPA1 092202Z 36005KT 09/M09 A3031 RMK A01 T00931086  RH  028%=      5-min Rain = 0
KPA1 092203Z 00004KT 09/M09 A3031 RMK A01 T00921085  RH  028%=      5-min Rain = 0
KPA1 092204Z 01006KT 09/M09 A3031 RMK A01 T00921085  RH  028%=      5-min Rain = 0
KPA1 092205Z 00005KT 09/M09 A3031 RMK A01 T00921085  RH  028%=      5-min Rain = 0
KPA1 092206Z 36004KT 09/M09 A3031 RMK A01 T00911087  RH  027%=      5-min Rain = 0
KPA1 092207Z 00005KT 09/M09 A3031 RMK A01 T00901087  RH  028%=      5-min Rain = 0
KPA1 092208Z 01003KT 09/M09 A3031 RMK A01 T00901088  RH  028%=      5-min Rain = 0
KPA1 092209Z 00004KT 09/M09 A3031 RMK A01 T00891089  RH  028%=      5-min Rain = 0
KPA1 092210Z 01006KT 09/M09 A3031 RMK A01 T00881087  RH  028%=      5-min Rain = 0
KPA1 092211Z 03005KT 09/M08 A3031 RMK A01 T00881084  RH  029%=      5-min Rain = 0
KPA1 092212Z 03005KT 09/M09 A3031 RMK A01 T00881085  RH  028%=      5-min Rain = 0
KPA1 092213Z 04006KT 09/M09 A3031 RMK A01 T00891086  RH  028%=      5-min Rain = 0
KPA1 092214Z 04006KT 09/M09 A3032 RMK A01 T00871086  RH  028%=      5-min Rain = 0
KPA1 092215Z 02007KT 09/M08 A3032 RMK A01 T00871084  RH  029%=      5-min Rain = 0
KPA1 092216Z 02007KT 09/M08 A3032 RMK A01 T00861084  RH  029%=      5-min Rain = 0
KPA1 092217Z 02006KT 09/M09 A3032 RMK A01 T00861085  RH  029%=      5-min Rain = 0
KPA1 092218Z 03005KT 09/M09 A3032 RMK A01 T00861086  RH  029%=      5-min Rain = 0
KPA1 092219Z 04004KT 09/M09 A3032 RMK A01 T00861086  RH  029%=      5-min Rain = 0
KPA1 092220Z 04005KT 09/M08 A3032 RMK A01 T00851084  RH  029%=      5-min Rain = 0
KPA1 092221Z 04005KT 09/M08 A3032 RMK A01 T00851084  RH  029%=      5-min Rain = 0
KPA1 092222Z 03005KT 09/M08 A3032 RMK A01 T00851083  RH  030%=      5-min Rain = 0
KPA1 092223Z 02005KT 08/M08 A3032 RMK A01 T00841083  RH  030%=      5-min Rain = 0
KPA1 092224Z 02005KT 08/M08 A3032 RMK A01 T00841084  RH  029%=      5-min Rain = 0
KPA1 092225Z 02005KT 08/M09 A3032 RMK A01 T00841085  RH  029%=      5-min Rain = 0
KPA1 092226Z 03005KT 08/M08 A3032 RMK A01 T00841082  RH  030%=      5-min Rain = 0
KPA1 092227Z 03006KT 09/M08 A3032 RMK A01 T00851081  RH  030%=      5-min Rain = 0
KPA1 092228Z 03006KT 09/M08 A3032 RMK A01 T00871081  RH  030%=      5-min Rain = 0
KPA1 092229Z 02005KT 09/M08 A3032 RMK A01 T00881080  RH  030%=      5-min Rain = 0
KPA1 092230Z 02005KT 09/M08 A3032 RMK A01 T00891080  RH  029%=      5-min Rain = 0
KPA1 092231Z 02005KT 09/M08 A3032 RMK A01 T00891082  RH  029%=      5-min Rain = 0
KPA1 092232Z 03004KT 09/M08 A3032 RMK A01 T00891081  RH  029%=      5-min Rain = 0
KPA1 092233Z 01005KT 09/M08 A3032 RMK A01 T00901080  RH  029%=      5-min Rain = 0
KPA1 092234Z 00005KT 09/M08 A3032 RMK A01 T00901080  RH  029%=      5-min Rain = 0
KPA1 092235Z 36005KT 09/M08 A3032 RMK A01 T00901077  RH  030%=      5-min Rain = 0
KPA1 092236Z 01005KT 09/M07 A3032 RMK A01 T00901074  RH  031%=      5-min Rain = 0
KPA1 092237Z 01005KT 09/M07 A3032 RMK A01 T00901072  RH  031%=      5-min Rain = 0
KPA1 092238Z 01006KT 09/M07 A3032 RMK A01 T00891072  RH  031%=      5-min Rain = 0
KPA1 092239Z 01006KT 09/M07 A3032 RMK A01 T00891072  RH  031%=      5-min Rain = 0
KPA1 092240Z 01005KT 09/M07 A3032 RMK A01 T00891070  RH  032%=      5-min Rain = 0
KPA1 092241Z 00005KT 09/M07 A3032 RMK A01 T00881069  RH  032%=      5-min Rain = 0
KPA1 092242Z 00006KT 09/M07 A3032 RMK A01 T00881072  RH  032%=      5-min Rain = 0
KPA1 092243Z 01006KT 09/M07 A3032 RMK A01 T00881072  RH  032%=      5-min Rain = 0
KPA1 092244Z 01006KT 09/M07 A3032 RMK A01 T00871072  RH  032%=      5-min Rain = 0
KPA1 092245Z 01006KT 09/M07 A3032 RMK A01 T00871073  RH  032%=      5-min Rain = 0
KPA1 092246Z 02006KT 09/M07 A3032 RMK A01 T00871072  RH  032%=      5-min Rain = 0
KPA1 092247Z 00005KT 09/M07 A3032 RMK A01 T00861071  RH  032%=      5-min Rain = 0
KPA1 092248Z 02007KT 09/M07 A3032 RMK A01 T00861071  RH  032%=      5-min Rain = 0
KPA1 092249Z 02007KT 09/M07 A3032 RMK A01 T00861071  RH  032%=      5-min Rain = 0
KPA1 092250Z 03006KT 09/M07 A3032 RMK A01 T00861071  RH  032%=      5-min Rain = 0
KPA1 092251Z 03005KT 09/M07 A3032 RMK A01 T00861070  RH  032%=      5-min Rain = 0
KPA1 092252Z 02005KT 09/M07 A3032 RMK A01 T00861070  RH  032%=      5-min Rain = 0
KPA1 092253Z 02005KT 09/M07 A3032 RMK A01 T00851070  RH  033%=      5-min Rain = 0
KPA1 092254Z 02007KT 09/M07 A3032 RMK A01 T00851070  RH  033%=      5-min Rain = 0
KPA1 092255Z 03007KT 09/M07 A3032 RMK A01 T00851071  RH  033%=      5-min Rain = 0
KPA1 092256Z 03006KT 08/M07 A3032 RMK A01 T00841070  RH  033%=      5-min Rain = 0
KPA1 092257Z 01006KT 08/M07 A3032 RMK A01 T00841069  RH  033%=      5-min Rain = 0
KPA1 092258Z 01004KT 08/M07 A3032 RMK A01 T00831069  RH  033%=      5-min Rain = 0
KPA1 092259Z 01004KT 08/M07 A3032 RMK A01 T00821068  RH  034%=      5-min Rain = 0
KPA1 092300Z 01004KT 08/M07 A3033 RMK A01 T00811067  RH  034%=      5-min Rain = 0
KPA1 092301Z 00004KT 08/M07 A3033 RMK A01 T00801067  RH  035%=      5-min Rain = 0
KPA1 092302Z 01004KT 08/M07 A3033 RMK A01 T00791068  RH  035%=      5-min Rain = 0
KPA1 092303Z 01005KT 08/M07 A3032 RMK A01 T00791068  RH  035%=      5-min Rain = 0
KPA1 092304Z 01005KT 08/M07 A3032 RMK A01 T00791068  RH  035%=      5-min Rain = 0
KPA1 092305Z 00004KT 08/M07 A3032 RMK A01 T00781068  RH  035%=      5-min Rain = 0
KPA1 092306Z 00004KT 08/M07 A3032 RMK A01 T00771068  RH  035%=      5-min Rain = 0
KPA1 092307Z 01005KT 08/M07 A3032 RMK A01 T00751068  RH  035%=      5-min Rain = 0
KPA1 092308Z 01005KT 08/M07 A3032 RMK A01 T00751068  RH  035%=      5-min Rain = 0
KPA1 092309Z 01005KT 08/M07 A3032 RMK A01 T00761068  RH  035%=      5-min Rain = 0
KPA1 092310Z 01005KT 08/M07 A3032 RMK A01 T00751068  RH  036%=      5-min Rain = 0
KPA1 092311Z 01005KT 07/M07 A3032 RMK A01 T00731068  RH  036%=      5-min Rain = 0
KPA1 092312Z 01005KT 07/M07 A3032 RMK A01 T00731069  RH  036%=      5-min Rain = 0
KPA1 092313Z 02005KT 07/M07 A3032 RMK A01 T00721069  RH  036%=      5-min Rain = 0
KPA1 092314Z 02004KT 07/M07 A3032 RMK A01 T00711070  RH  036%=      5-min Rain = 0
KPA1 092315Z 02004KT 07/M07 A3032 RMK A01 T00711070  RH  036%=      5-min Rain = 0
KPA1 092316Z 02005KT 07/M07 A3032 RMK A01 T00711071  RH  036%=      5-min Rain = 0
KPA1 092317Z 02005KT 07/M07 A3032 RMK A01 T00701071  RH  036%=      5-min Rain = 0
KPA1 092318Z 02005KT 07/M07 A3032 RMK A01 T00691071  RH  036%=      5-min Rain = 0
KPA1 092319Z 02005KT 07/M07 A3032 RMK A01 T00681072  RH  036%=      5-min Rain = 0
KPA1 092320Z 02005KT 07/M07 A3032 RMK A01 T00681072  RH  036%=      5-min Rain = 0
KPA1 092321Z 02005KT 07/M07 A3032 RMK A01 T00671072  RH  036%=      5-min Rain = 0
KPA1 092322Z 02005KT 07/M07 A3032 RMK A01 T00661072  RH  037%=      5-min Rain = 0
KPA1 092323Z 02005KT 07/M07 A3032 RMK A01 T00661072  RH  036%=      5-min Rain = 0
KPA1 092324Z 03005KT 07/M07 A3032 RMK A01 T00671072  RH  036%=      5-min Rain = 0
KPA1 092325Z 02005KT 07/M07 A3033 RMK A01 T00651073  RH  037%=      5-min Rain = 0
KPA1 092326Z 02005KT 06/M07 A3033 RMK A01 T00641073  RH  037%=      5-min Rain = 0
KPA1 092327Z 02005KT 06/M07 A3033 RMK A01 T00621073  RH  037%=      5-min Rain = 0
KPA1 092328Z 02005KT 06/M07 A3033 RMK A01 T00611073  RH  038%=      5-min Rain = 0
KPA1 092329Z 02005KT 06/M07 A3033 RMK A01 T00611073  RH  038%=      5-min Rain = 0
KPA1 092330Z 02005KT 06/M07 A3033 RMK A01 T00611073  RH  038%=      5-min Rain = 0
KPA1 092331Z 02004KT 06/M07 A3033 RMK A01 T00601073  RH  038%=      5-min Rain = 0
KPA1 092332Z 02004KT 06/M07 A3033 RMK A01 T00601073  RH  038%=      5-min Rain = 0
KPA1 092333Z 02004KT 06/M07 A3033 RMK A01 T00591074  RH  038%=      5-min Rain = 0
KPA1 092334Z 02004KT 06/M08 A3033 RMK A01 T00571075  RH  038%=      5-min Rain = 0
KPA1 092335Z 02004KT 06/M08 A3033 RMK A01 T00551075  RH  039%=      5-min Rain = 0
KPA1 092336Z 02004KT 05/M08 A3033 RMK A01 T00541075  RH  039%=      5-min Rain = 0
KPA1 092337Z 02004KT 05/M08 A3033 RMK A01 T00531075  RH  039%=      5-min Rain = 0
KPA1 092338Z 02004KT 05/M07 A3033 RMK A01 T00531074  RH  039%=      5-min Rain = 0
KPA1 092339Z 02004KT 05/M08 A3033 RMK A01 T00511075  RH  040%=      5-min Rain = 0
KPA1 092340Z 03004KT 05/M08 A3033 RMK A01 T00501075  RH  040%=      5-min Rain = 0
KPA1 092341Z 03004KT 05/M08 A3033 RMK A01 T00501075  RH  040%=      5-min Rain = 0
KPA1 092342Z 02004KT 05/M08 A3033 RMK A01 T00501075  RH  040%=      5-min Rain = 0
KPA1 092343Z 03004KT 05/M07 A3033 RMK A01 T00511074  RH  040%=      5-min Rain = 0
KPA1 092344Z 02005KT 05/M08 A3033 RMK A01 T00501075  RH  040%=      5-min Rain = 0
KPA1 092345Z 02005KT 05/M08 A3034 RMK A01 T00481076  RH  040%=      5-min Rain = 0
KPA1 092346Z 02005KT 05/M08 A3034 RMK A01 T00461076  RH  041%=      5-min Rain = 0
KPA1 092347Z 02005KT 05/M08 A3034 RMK A01 T00461075  RH  041%=      5-min Rain = 0
KPA1 092348Z 01005KT 05/M07 A3034 RMK A01 T00461074  RH  041%=      5-min Rain = 0
KPA1 092349Z 01006KT 04/M07 A3034 RMK A01 T00431074  RH  042%=      5-min Rain = 0
KPA1 092350Z 02006KT 04/M07 A3034 RMK A01 T00421073  RH  043%=      5-min Rain = 0
KPA1 092351Z 02006KT 04/M07 A3034 RMK A01 T00421072  RH  043%=      5-min Rain = 0
KPA1 092352Z 02006KT 04/M07 A3034 RMK A01 T00431071  RH  043%=      5-min Rain = 0
KPA1 092353Z 02006KT 04/M07 A3034 RMK A01 T00431071  RH  043%=      5-min Rain = 0
KPA1 092354Z 02006KT 04/M07 A3034 RMK A01 T00431071  RH  043%=      5-min Rain = 0
KPA1 092355Z 02006KT 05/M07 A3034 RMK A01 T00451071  RH  043%=      5-min Rain = 0
KPA1 092356Z 02006KT 05/M07 A3034 RMK A01 T00461072  RH  042%=      5-min Rain = 0
KPA1 092357Z 02006KT 05/M07 A3034 RMK A01 T00461072  RH  042%=      5-min Rain = 0
KPA1 092358Z 02006KT 05/M07 A3034 RMK A01 T00471072  RH  042%=      5-min Rain = 0
KPA1 092359Z 01006KT 05/M07 A3034 RMK A01 T00471073  RH  042%=      5-min Rain = 0
KPA1 100000Z 01005KT 05/M07 A3034 RMK A01 T00461073  RH  042%=      5-min Rain = 0
KPA1 100001Z 01005KT 04/M07 A3034 RMK A01 T00431074  RH  042%=      5-min Rain = 0
KPA1 100002Z 01005KT 04/M07 A3034 RMK A01 T00431074  RH  042%=      5-min Rain = 0
KPA1 100003Z 01004KT 04/M07 A3034 RMK A01 T00431074  RH  042%=      5-min Rain = 0
KPA1 100004Z 01005KT 04/M07 A3034 RMK A01 T00441073  RH  042%=      5-min Rain = 0
KPA1 100005Z 01005KT 05/M07 A3034 RMK A01 T00451074  RH  042%=      5-min Rain = 0
KPA1 100006Z 01005KT 05/M07 A3034 RMK A01 T00451074  RH  042%=      5-min Rain = 0
KPA1 100007Z 01005KT 05/M07 A3035 RMK A01 T00451074  RH  042%=      5-min Rain = 0
KPA1 100008Z 01005KT 05/M07 A3034 RMK A01 T00451074  RH  042%=      5-min Rain = 0
KPA1 100009Z 02005KT 04/M07 A3034 RMK A01 T00431074  RH  042%=      5-min Rain = 0
KPA1 100010Z 01005KT 04/M07 A3034 RMK A01 T00421074  RH  043%=      5-min Rain = 0
KPA1 100011Z 02006KT 04/M07 A3034 RMK A01 T00421074  RH  043%=      5-min Rain = 0
KPA1 100012Z 01006KT 04/M07 A3035 RMK A01 T00421074  RH  043%=      5-min Rain = 0
KPA1 100013Z 01005KT 04/M07 A3035 RMK A01 T00421073  RH  043%=      5-min Rain = 0
KPA1 100014Z 01005KT 04/M07 A3035 RMK A01 T00421073  RH  043%=      5-min Rain = 0
KPA1 100015Z 01005KT 04/M07 A3035 RMK A01 T00431072  RH  043%=      5-min Rain = 0
KPA1 100016Z 02005KT 04/M07 A3035 RMK A01 T00441073  RH  042%=      5-min Rain = 0
KPA1 100017Z 01006KT 05/M07 A3035 RMK A01 T00451072  RH  042%=      5-min Rain = 0
KPA1 100018Z 02006KT 05/M07 A3035 RMK A01 T00451073  RH  042%=      5-min Rain = 0
KPA1 100019Z 02006KT 04/M07 A3035 RMK A01 T00421074  RH  043%=      5-min Rain = 0
KPA1 100020Z 01006KT 04/M07 A3035 RMK A01 T00381074  RH  044%=      5-min Rain = 0
KPA1 100021Z 01005KT 04/M07 A3035 RMK A01 T00351074  RH  045%=      5-min Rain = 0
KPA1 100022Z 01005KT 03/M08 A3035 RMK A01 T00331075  RH  045%=      5-min Rain = 0
KPA1 100023Z 01005KT 03/M07 A3035 RMK A01 T00331074  RH  045%=      5-min Rain = 0
KPA1 100024Z 01004KT 04/M07 A3035 RMK A01 T00361072  RH  045%=      5-min Rain = 0
KPA1 100025Z 01004KT 04/M07 A3035 RMK A01 T00381072  RH  044%=      5-min Rain = 0
KPA1 100026Z 01004KT 04/M07 A3035 RMK A01 T00391073  RH  044%=      5-min Rain = 0
KPA1 100027Z 01004KT 04/M07 A3035 RMK A01 T00391073  RH  044%=      5-min Rain = 0
KPA1 100028Z 01004KT 04/M08 A3035 RMK A01 T00351076  RH  044%=      5-min Rain = 0
KPA1 100029Z 01004KT 03/M08 A3035 RMK A01 T00341075  RH  045%=      5-min Rain = 0
KPA1 100030Z 01004KT 03/M08 A3035 RMK A01 T00331075  RH  045%=      5-min Rain = 0
KPA1 100031Z 00004KT 03/M08 A3035 RMK A01 T00321075  RH  045%=      5-min Rain = 0
KPA1 100032Z 00005KT 03/M07 A3035 RMK A01 T00311074  RH  046%=      5-min Rain = 0
KPA1 100033Z 00006KT 03/M07 A3035 RMK A01 T00301074  RH  046%=      5-min Rain = 0
KPA1 100034Z 00007KT 03/M07 A3035 RMK A01 T00321073  RH  046%=      5-min Rain = 0
KPA1 100035Z 00007KT 03/M07 A3035 RMK A01 T00291074  RH  047%=      5-min Rain = 0
KPA1 100036Z 00006KT 03/M08 A3035 RMK A01 T00251075  RH  048%=      5-min Rain = 0
KPA1 100037Z 00007KT 02/M08 A3035 RMK A01 T00241075  RH  048%=      5-min Rain = 0
KPA1 100038Z 01007KT 03/M07 A3035 RMK A01 T00251074  RH  048%=      5-min Rain = 0
KPA1 100039Z 01007KT 03/M07 A3035 RMK A01 T00261074  RH  048%=      5-min Rain = 0
KPA1 100040Z 01006KT 03/M07 A3034 RMK A01 T00281074  RH  047%=      5-min Rain = 0
KPA1 100041Z 01005KT 03/M07 A3034 RMK A01 T00301074  RH  046%=      5-min Rain = 0
KPA1 100042Z 01007KT 03/M08 A3034 RMK A01 T00311075  RH  046%=      5-min Rain = 0
KPA1 100043Z 01006KT 03/M08 A3034 RMK A01 T00321075  RH  045%=      5-min Rain = 0
KPA1 100044Z 01006KT 03/M08 A3034 RMK A01 T00311076  RH  045%=      5-min Rain = 0
KPA1 100045Z 01006KT 03/M08 A3034 RMK A01 T00291077  RH  046%=      5-min Rain = 0
KPA1 100046Z 01006KT 03/M08 A3034 RMK A01 T00281076  RH  046%=      5-min Rain = 0
KPA1 100047Z 01006KT 03/M08 A3034 RMK A01 T00281076  RH  046%=      5-min Rain = 0
KPA1 100048Z 02006KT 03/M08 A3034 RMK A01 T00271077  RH  047%=      5-min Rain = 0
KPA1 100049Z 01005KT 03/M08 A3034 RMK A01 T00261077  RH  047%=      5-min Rain = 0
KPA1 100050Z 01006KT 03/M08 A3035 RMK A01 T00271077  RH  046%=      5-min Rain = 0
KPA1 100051Z 01006KT 03/M08 A3035 RMK A01 T00281077  RH  046%=      5-min Rain = 0
KPA1 100052Z 01006KT 03/M08 A3035 RMK A01 T00271078  RH  046%=      5-min Rain = 0
KPA1 100053Z 01006KT 03/M08 A3035 RMK A01 T00261079  RH  046%=      5-min Rain = 0
KPA1 100054Z 00006KT 03/M08 A3035 RMK A01 T00251079  RH  046%=      5-min Rain = 0
KPA1 100055Z 36006KT 02/M08 A3035 RMK A01 T00241080  RH  046%=      5-min Rain = 0
KPA1 100056Z 00006KT 02/M08 A3035 RMK A01 T00201081  RH  047%=      5-min Rain = 0
KPA1 100057Z 00006KT 02/M08 A3035 RMK A01 T00191079  RH  048%=      5-min Rain = 0
KPA1 100058Z 00006KT 02/M08 A3035 RMK A01 T00201077  RH  049%=      5-min Rain = 0
KPA1 100059Z 36006KT 02/M08 A3035 RMK A01 T00221076  RH  048%=      5-min Rain = 0
KPA1 100100Z 00006KT 03/M08 A3035 RMK A01 T00261076  RH  047%=      5-min Rain = 0
KPA1 100101Z 36005KT 03/M08 A3035 RMK A01 T00271077  RH  046%=      5-min Rain = 0
KPA1 100102Z 00005KT 03/M08 A3035 RMK A01 T00271077  RH  046%=      5-min Rain = 0
KPA1 100103Z 36005KT 03/M08 A3035 RMK A01 T00281078  RH  046%=      5-min Rain = 0
KPA1 100104Z 00005KT 03/M08 A3035 RMK A01 T00301078  RH  045%=      5-min Rain = 0
KPA1 100105Z 36005KT 03/M08 A3035 RMK A01 T00321078  RH  044%=      5-min Rain = 0
KPA1 100106Z 36005KT 03/M08 A3035 RMK A01 T00321079  RH  044%=      5-min Rain = 0
KPA1 100107Z 36005KT 03/M08 A3035 RMK A01 T00311079  RH  044%=      5-min Rain = 0
KPA1 100108Z 00005KT 03/M08 A3035 RMK A01 T00311079  RH  044%=      5-min Rain = 0
KPA1 100109Z 00004KT 03/M08 A3035 RMK A01 T00301080  RH  044%=      5-min Rain = 0
KPA1 100110Z 00005KT 03/M08 A3035 RMK A01 T00301079  RH  044%=      5-min Rain = 0
KPA1 100111Z 00005KT 03/M08 A3035 RMK A01 T00301080  RH  044%=      5-min Rain = 0
KPA1 100112Z 00005KT 03/M08 A3035 RMK A01 T00311080  RH  044%=      5-min Rain = 0
KPA1 100113Z 00005KT 03/M08 A3035 RMK A01 T00311080  RH  044%=      5-min Rain = 0
KPA1 100114Z 00005KT 03/M08 A3036 RMK A01 T00311080  RH  044%=      5-min Rain = 0
KPA1 100115Z 00005KT 03/M08 A3036 RMK A01 T00311081  RH  044%=      5-min Rain = 0
KPA1 100116Z 00005KT 03/M08 A3036 RMK A01 T00301081  RH  044%=      5-min Rain = 0
KPA1 100117Z 01006KT 03/M08 A3036 RMK A01 T00291081  RH  044%=      5-min Rain = 0
KPA1 100118Z 01005KT 03/M08 A3036 RMK A01 T00281081  RH  045%=      5-min Rain = 0
KPA1 100119Z 01005KT 02/M08 A3035 RMK A01 T00231083  RH  045%=      5-min Rain = 0
KPA1 100120Z 01005KT 02/M08 A3035 RMK A01 T00181083  RH  047%=      5-min Rain = 0
KPA1 100121Z 01004KT 02/M08 A3035 RMK A01 T00171082  RH  048%=      5-min Rain = 0
KPA1 100122Z 02004KT 02/M08 A3035 RMK A01 T00171081  RH  048%=      5-min Rain = 0
KPA1 100123Z 02004KT 02/M08 A3035 RMK A01 T00181081  RH  048%=      5-min Rain = 0
KPA1 100124Z 02004KT 02/M08 A3035 RMK A01 T00191080  RH  048%=      5-min Rain = 0
KPA1 100125Z 02004KT 02/M08 A3035 RMK A01 T00191080  RH  048%=      5-min Rain = 0
KPA1 100126Z 02004KT 02/M08 A3035 RMK A01 T00171081  RH  048%=      5-min Rain = 0
KPA1 100127Z 02004KT 02/M08 A3035 RMK A01 T00151081  RH  049%=      5-min Rain = 0
KPA1 100128Z 02003KT 01/M08 A3035 RMK A01 T00131081  RH  050%=      5-min Rain = 0
KPA1 100129Z 02003KT 01/M08 A3035 RMK A01 T00101082  RH  051%=      5-min Rain = 0
KPA1 100130Z 02003KT 01/M08 A3035 RMK A01 T00051083  RH  052%=      5-min Rain = 0
KPA1 100131Z 02003KT 00/M08 A3035 RMK A01 T00021082  RH  053%=      5-min Rain = 0
KPA1 100132Z 02003KT 00/M08 A3035 RMK A01 T00011082  RH  054%=      5-min Rain = 0
KPA1 100133Z 02003KT M00/M08 A3035 RMK A01 T10011081  RH  055%=      5-min Rain = 0
KPA1 100134Z 01002KT M00/M08 A3035 RMK A01 T10011081  RH  055%=      5-min Rain = 0
KPA1 100135Z 00001KT M00/M08 A3035 RMK A01 T10031081  RH  055%=      5-min Rain = 0
KPA1 100136Z 36001KT M00/M08 A3035 RMK A01 T10041082  RH  056%=      5-min Rain = 0
KPA1 100137Z 35001KT M01/M08 A3035 RMK A01 T10061082  RH  057%=      5-min Rain = 0
KPA1 100138Z 34000KT M01/M08 A3035 RMK A01 T10061081  RH  057%=      5-min Rain = 0
KPA1 100139Z 34000KT M01/M08 A3035 RMK A01 T10071082  RH  057%=      5-min Rain = 0
KPA1 100140Z 33001KT M01/M09 A3035 RMK A01 T10111085  RH  057%=      5-min Rain = 0
KPA1 100141Z 32001KT M02/M09 A3035 RMK A01 T10151086  RH  058%=      5-min Rain = 0
KPA1 100142Z 32001KT M02/M09 A3036 RMK A01 T10161085  RH  059%=      5-min Rain = 0
KPA1 100143Z 31001KT M02/M09 A3036 RMK A01 T10181085  RH  060%=      5-min Rain = 0
KPA1 100144Z 31001KT M02/M09 A3036 RMK A01 T10201085  RH  061%=      5-min Rain = 0
KPA1 100145Z 31002KT M02/M08 A3036 RMK A01 T10181082  RH  061%=      5-min Rain = 0
KPA1 100146Z 31002KT M01/M08 A3036 RMK A01 T10131078  RH  061%=      5-min Rain = 0
KPA1 100147Z 32002KT M01/M08 A3036 RMK A01 T10061075  RH  059%=      5-min Rain = 0
KPA1 100148Z 32001KT M00/M08 A3036 RMK A01 T10021076  RH  058%=      5-min Rain = 0
KPA1 100149Z 32001KT 00/08 A3036 RMK A01 T00-00-78  RH  056%=      5-min Rain = 0
KPA1 100150Z 33001KT 00/M08 A3036 RMK A01 T00011078  RH  055%=      5-min Rain = 0
KPA1 100151Z 33001KT 00/M08 A3036 RMK A01 T00011079  RH  055%=      5-min Rain = 0
KPA1 100152Z 33001KT 00/M08 A3036 RMK A01 T00021079  RH  054%=      5-min Rain = 0
KPA1 100153Z 33001KT 00/M08 A3036 RMK A01 T00031079  RH  054%=      5-min Rain = 0
KPA1 100154Z 32001KT 00/M08 A3036 RMK A01 T00021080  RH  054%=      5-min Rain = 0
KPA1 100155Z 31001KT 00/M08 A3036 RMK A01 T00011080  RH  055%=      5-min Rain = 0
KPA1 100156Z 31001KT M00/M08 A3036 RMK A01 T10041082  RH  056%=      5-min Rain = 0
KPA1 100157Z 32001KT M01/M08 A3036 RMK A01 T10071082  RH  057%=      5-min Rain = 0
KPA1 100158Z 32001KT M01/M08 A3036 RMK A01 T10081080  RH  058%=      5-min Rain = 0
KPA1 100159Z 32001KT M01/M08 A3035 RMK A01 T10091079  RH  059%=      5-min Rain = 0
KPA1 100200Z 32001KT M01/M08 A3035 RMK A01 T10091078  RH  059%=      5-min Rain = 0
KPA1 100201Z 32001KT M01/M08 A3035 RMK A01 T10101079  RH  059%=      5-min Rain = 0
KPA1 100202Z 32000KT M01/M08 A3035 RMK A01 T10111080  RH  060%=      5-min Rain = 0
KPA1 100203Z 32000KT M01/M08 A3035 RMK A01 T10131080  RH  060%=      5-min Rain = 0
KPA1 100204Z 00000KT M01/M08 A3035 RMK A01 T10141080  RH  061%=      5-min Rain = 0
KPA1 100205Z 00000KT M01/M08 A3035 RMK A01 T10141080  RH  061%=      5-min Rain = 0
KPA1 100206Z 00000KT M02/M08 A3035 RMK A01 T10151080  RH  061%=      5-min Rain = 0
KPA1 100207Z 00000KT M02/M08 A3035 RMK A01 T10161080  RH  061%=      5-min Rain = 0
KPA1 100208Z 00000KT M02/M08 A3035 RMK A01 T10161080  RH  062%=      5-min Rain = 0
KPA1 100209Z 00000KT M02/M08 A3035 RMK A01 T10161080  RH  062%=      5-min Rain = 0
KPA1 100210Z 32000KT M02/M08 A3035 RMK A01 T10161080  RH  062%=      5-min Rain = 0
KPA1 100211Z 31001KT M02/M08 A3035 RMK A01 T10161080  RH  062%=      5-min Rain = 0
KPA1 100212Z 32001KT M02/M08 A3035 RMK A01 T10171080  RH  062%=      5-min Rain = 0
KPA1 100213Z 32002KT M02/M08 A3035 RMK A01 T10171080  RH  062%=      5-min Rain = 0
KPA1 100214Z 35002KT M02/M08 A3035 RMK A01 T10161079  RH  062%=      5-min Rain = 0
KPA1 100215Z 35002KT M02/M08 A3035 RMK A01 T10161079  RH  062%=      5-min Rain = 0
KPA1 100216Z 36003KT M02/M08 A3035 RMK A01 T10151079  RH  062%=      5-min Rain = 0
KPA1 100217Z 00003KT M01/M08 A3035 RMK A01 T10141079  RH  062%=      5-min Rain = 0
KPA1 100218Z 34002KT M01/M08 A3035 RMK A01 T10131078  RH  061%=      5-min Rain = 0
KPA1 100219Z 32002KT M01/M08 A3036 RMK A01 T10131078  RH  061%=      5-min Rain = 0
KPA1 100220Z 30002KT M01/M08 A3036 RMK A01 T10121078  RH  061%=      5-min Rain = 0
KPA1 100221Z 29002KT M01/M08 A3036 RMK A01 T10121078  RH  061%=      5-min Rain = 0
KPA1 100222Z 29002KT M01/M08 A3036 RMK A01 T10121077  RH  061%=      5-min Rain = 0
KPA1 100223Z 30001KT M01/M08 A3036 RMK A01 T10121077  RH  061%=      5-min Rain = 0
KPA1 100224Z 30002KT M01/M08 A3036 RMK A01 T10111076  RH  061%=      5-min Rain = 0
KPA1 100225Z 30002KT M01/M08 A3036 RMK A01 T10101076  RH  061%=      5-min Rain = 0
KPA1 100226Z 29003KT M01/M08 A3036 RMK A01 T10091076  RH  060%=      5-min Rain = 0
KPA1 100227Z 28003KT M01/M08 A3036 RMK A01 T10081077  RH  060%=      5-min Rain = 0
KPA1 100228Z 28003KT M01/M08 A3036 RMK A01 T10081078  RH  059%=      5-min Rain = 0
KPA1 100229Z 29003KT M01/M08 A3036 RMK A01 T10081080  RH  058%=      5-min Rain = 0
KPA1 100230Z 29003KT M01/M08 A3036 RMK A01 T10101083  RH  058%=      5-min Rain = 0
KPA1 100231Z 29003KT M01/M09 A3036 RMK A01 T10141085  RH  059%=      5-min Rain = 0
KPA1 100232Z 30003KT M02/M09 A3036 RMK A01 T10181086  RH  060%=      5-min Rain = 0
KPA1 100233Z 30004KT M02/M09 A3036 RMK A01 T10221086  RH  061%=      5-min Rain = 0
KPA1 100234Z 30004KT M02/M09 A3036 RMK A01 T10231086  RH  062%=      5-min Rain = 0
KPA1 100235Z 30005KT M03/M09 A3037 RMK A01 T10261086  RH  063%=      5-min Rain = 0
KPA1 100236Z 30006KT M03/M09 A3037 RMK A01 T10271085  RH  064%=      5-min Rain = 0
KPA1 100237Z 30006KT M03/M09 A3037 RMK A01 T10281085  RH  065%=      5-min Rain = 0
KPA1 100238Z 30006KT M03/M08 A3037 RMK A01 T10301084  RH  066%=      5-min Rain = 0
KPA1 100239Z 30007KT M03/M08 A3037 RMK A01 T10321083  RH  068%=      5-min Rain = 0
KPA1 100240Z 30006KT M03/M08 A3037 RMK A01 T10321079  RH  070%=      5-min Rain = 0
KPA1 100241Z 30006KT M03/M08 A3037 RMK A01 T10291076  RH  070%=      5-min Rain = 0
KPA1 100242Z 30005KT M03/M08 A3037 RMK A01 T10261076  RH  069%=      5-min Rain = 0
KPA1 100243Z 30005KT M03/M08 A3037 RMK A01 T10251076  RH  068%=      5-min Rain = 0
KPA1 100244Z 30005KT M03/M08 A3037 RMK A01 T10251077  RH  068%=      5-min Rain = 0
KPA1 100245Z 30005KT M03/M08 A3037 RMK A01 T10261078  RH  067%=      5-min Rain = 0
KPA1 100246Z 29005KT M03/M08 A3037 RMK A01 T10281080  RH  067%=      5-min Rain = 0
KPA1 100247Z 29005KT M03/M08 A3037 RMK A01 T10281079  RH  068%=      5-min Rain = 0
KPA1 100248Z 29006KT M03/M08 A3037 RMK A01 T10271078  RH  068%=      5-min Rain = 0
KPA1 100249Z 29006KT M03/M08 A3037 RMK A01 T10271078  RH  068%=      5-min Rain = 0
KPA1 100250Z 29006KT M03/M08 A3037 RMK A01 T10271079  RH  068%=      5-min Rain = 0
KPA1 100251Z 29005KT M03/M08 A3037 RMK A01 T10281079  RH  068%=      5-min Rain = 0
KPA1 100252Z 29005KT M03/M08 A3037 RMK A01 T10291079  RH  069%=      5-min Rain = 0
KPA1 100253Z 28005KT M03/M08 A3037 RMK A01 T10311079  RH  069%=      5-min Rain = 0
KPA1 100254Z 27003KT M03/M08 A3037 RMK A01 T10311079  RH  069%=      5-min Rain = 0
KPA1 100255Z 28004KT M03/M08 A3037 RMK A01 T10321080  RH  070%=      5-min Rain = 0
KPA1 100256Z 28005KT M03/M08 A3037 RMK A01 T10291077  RH  069%=      5-min Rain = 0
KPA1 100257Z 28004KT M03/M08 A3037 RMK A01 T10261076  RH  068%=      5-min Rain = 0
KPA1 100258Z 28002KT M03/M08 A3037 RMK A01 T10261078  RH  067%=      5-min Rain = 0
KPA1 100259Z 28002KT M03/M08 A3037 RMK A01 T10251079  RH  067%=      5-min Rain = 0
KPA1 100300Z 28002KT M03/M08 A3037 RMK A01 T10261080  RH  066%=      5-min Rain = 0
KPA1 100301Z 29003KT M03/M08 A3037 RMK A01 T10261080  RH  066%=      5-min Rain = 0
KPA1 100302Z 28003KT M03/M08 A3037 RMK A01 T10261080  RH  066%=      5-min Rain = 0
KPA1 100303Z 28004KT M03/M08 A3037 RMK A01 T10251080  RH  066%=      5-min Rain = 0
KPA1 100304Z 28005KT M03/M08 A3037 RMK A01 T10251079  RH  066%=      5-min Rain = 0
KPA1 100305Z 28005KT M02/M08 A3037 RMK A01 T10231078  RH  066%=      5-min Rain = 0
KPA1 100306Z 28005KT M02/M08 A3036 RMK A01 T10221078  RH  066%=      5-min Rain = 0
KPA1 100307Z 28005KT M02/M08 A3037 RMK A01 T10211078  RH  065%=      5-min Rain = 0
KPA1 100308Z 28005KT M02/M08 A3037 RMK A01 T10201078  RH  065%=      5-min Rain = 0
KPA1 100309Z 28005KT M02/M08 A3037 RMK A01 T10201079  RH  064%=      5-min Rain = 0
KPA1 100310Z 28005KT M02/M08 A3037 RMK A01 T10201079  RH  064%=      5-min Rain = 0
KPA1 100311Z 28005KT M02/M08 A3037 RMK A01 T10221080  RH  064%=      5-min Rain = 0
KPA1 100312Z 29005KT M02/M08 A3037 RMK A01 T10221079  RH  065%=      5-min Rain = 0
KPA1 100313Z 29005KT M02/M08 A3037 RMK A01 T10221079  RH  065%=      5-min Rain = 0
KPA1 100314Z 29005KT M02/M08 A3037 RMK A01 T10201077  RH  065%=      5-min Rain = 0
KPA1 100315Z 30004KT M02/M08 A3036 RMK A01 T10171076  RH  064%=      5-min Rain = 0
KPA1 100316Z 30005KT M01/M08 A3036 RMK A01 T10141075  RH  063%=      5-min Rain = 0
KPA1 100317Z 28005KT M01/M08 A3037 RMK A01 T10131076  RH  062%=      5-min Rain = 0
KPA1 100318Z 28005KT M01/M08 A3036 RMK A01 T10131077  RH  062%=      5-min Rain = 0
KPA1 100319Z 29004KT M01/M08 A3036 RMK A01 T10131078  RH  061%=      5-min Rain = 0
KPA1 100320Z 29005KT M02/M08 A3036 RMK A01 T10151079  RH  061%=      5-min Rain = 0
KPA1 100321Z 29005KT M02/M08 A3037 RMK A01 T10171080  RH  062%=      5-min Rain = 0
KPA1 100322Z 29006KT M02/M08 A3037 RMK A01 T10191080  RH  063%=      5-min Rain = 0
KPA1 100323Z 29006KT M02/M08 A3037 RMK A01 T10211081  RH  064%=      5-min Rain = 0
KPA1 100324Z 29006KT M02/M08 A3037 RMK A01 T10231082  RH  064%=      5-min Rain = 0
KPA1 100325Z 29005KT M03/M08 A3037 RMK A01 T10251082  RH  065%=      5-min Rain = 0
KPA1 100326Z 29005KT M03/M08 A3037 RMK A01 T10271082  RH  066%=      5-min Rain = 0
KPA1 100327Z 29005KT M03/M08 A3037 RMK A01 T10281082  RH  066%=      5-min Rain = 0
KPA1 100328Z 29005KT M03/M08 A3037 RMK A01 T10271080  RH  067%=      5-min Rain = 0
KPA1 100329Z 30005KT M03/M08 A3037 RMK A01 T10251079  RH  066%=      5-min Rain = 0
KPA1 100330Z 30005KT M02/M08 A3037 RMK A01 T10231078  RH  066%=      5-min Rain = 0
KPA1 100331Z 30004KT M02/M08 A3037 RMK A01 T10211078  RH  065%=      5-min Rain = 0
KPA1 100332Z 30004KT M02/M08 A3037 RMK A01 T10211078  RH  065%=      5-min Rain = 0
KPA1 100333Z 30004KT M02/M08 A3037 RMK A01 T10211079  RH  065%=      5-min Rain = 0
KPA1 100334Z 30004KT M02/M08 A3037 RMK A01 T10211079  RH  064%=      5-min Rain = 0
KPA1 100335Z 29005KT M02/M08 A3037 RMK A01 T10211079  RH  064%=      5-min Rain = 0
KPA1 100336Z 29005KT M02/M08 A3037 RMK A01 T10211079  RH  064%=      5-min Rain = 0
KPA1 100337Z 29005KT M02/M08 A3037 RMK A01 T10211079  RH  064%=      5-min Rain = 0
KPA1 100338Z 29004KT M02/M08 A3037 RMK A01 T10211079  RH  064%=      5-min Rain = 0
KPA1 100339Z 29004KT M02/M08 A3037 RMK A01 T10211079  RH  064%=      5-min Rain = 0
KPA1 100340Z 29003KT M02/M08 A3037 RMK A01 T10241082  RH  064%=      5-min Rain = 0
KPA1 100341Z 27002KT M03/M08 A3037 RMK A01 T10261083  RH  065%=      5-min Rain = 0
KPA1 100342Z 26002KT M03/M08 A3037 RMK A01 T10261082  RH  066%=      5-min Rain = 0
KPA1 100343Z 27002KT M02/M08 A3037 RMK A01 T10231079  RH  066%=      5-min Rain = 0
KPA1 100344Z 27001KT M02/M08 A3037 RMK A01 T10221080  RH  065%=      5-min Rain = 0
KPA1 100345Z 26001KT M02/M08 A3037 RMK A01 T10231082  RH  064%=      5-min Rain = 0
KPA1 100346Z 26001KT M02/M08 A3037 RMK A01 T10241083  RH  064%=      5-min Rain = 0
KPA1 100347Z 26001KT M02/M08 A3037 RMK A01 T10241082  RH  064%=      5-min Rain = 0
KPA1 100348Z 25001KT M03/M08 A3037 RMK A01 T10261083  RH  065%=      5-min Rain = 0
KPA1 100349Z 22002KT M03/M09 A3037 RMK A01 T10311088  RH  064%=      5-min Rain = 0
KPA1 100350Z 19003KT M04/M09 A3037 RMK A01 T10361092  RH  065%=      5-min Rain = 0
KPA1 100351Z 19002KT M04/M09 A3037 RMK A01 T10401092  RH  067%=      5-min Rain = 0
KPA1 100352Z 21001KT M04/M09 A3037 RMK A01 T10411091  RH  069%=      5-min Rain = 0
KPA1 100353Z 22002KT M04/M09 A3037 RMK A01 T10421088  RH  070%=      5-min Rain = 0
KPA1 100354Z 21002KT M04/M09 A3037 RMK A01 T10421088  RH  070%=      5-min Rain = 0
KPA1 100355Z 21001KT M04/M09 A3037 RMK A01 T10431089  RH  070%=      5-min Rain = 0
KPA1 100356Z 21001KT M04/M09 A3037 RMK A01 T10431088  RH  071%=      5-min Rain = 0
KPA1 100357Z 22001KT M04/M09 A3037 RMK A01 T10421086  RH  071%=      5-min Rain = 0
KPA1 100358Z 22001KT M04/M09 A3037 RMK A01 T10411087  RH  070%=      5-min Rain = 0
KPA1 100359Z 22000KT M04/M09 A3037 RMK A01 T10411089  RH  069%=      5-min Rain = 0
KPA1 100400Z 29000KT M04/M09 A3037 RMK A01 T10431091  RH  069%=      5-min Rain = 0
KPA1 100401Z 30001KT M05/M09 A3037 RMK A01 T10451093  RH  069%=      5-min Rain = 0
KPA1 100402Z 30001KT M05/M09 A3037 RMK A01 T10481093  RH  070%=      5-min Rain = 0
KPA1 100403Z 30000KT M05/M09 A3037 RMK A01 T10491093  RH  071%=      5-min Rain = 0
KPA1 100404Z 31001KT M05/M09 A3037 RMK A01 T10501093  RH  072%=      5-min Rain = 0
KPA1 100405Z 31001KT M05/M09 A3037 RMK A01 T10511092  RH  073%=      5-min Rain = 0
KPA1 100406Z 31001KT M05/M09 A3037 RMK A01 T10511091  RH  073%=      5-min Rain = 0
KPA1 100407Z 31002KT M05/M09 A3037 RMK A01 T10501090  RH  074%=      5-min Rain = 0
KPA1 100408Z 31002KT M05/M09 A3037 RMK A01 T10491088  RH  074%=      5-min Rain = 0
KPA1 100409Z 31002KT M05/M09 A3037 RMK A01 T10481087  RH  074%=      5-min Rain = 0
KPA1 100410Z 31002KT M05/M09 A3037 RMK A01 T10461086  RH  074%=      5-min Rain = 0
KPA1 100411Z 31001KT M05/M09 A3037 RMK A01 T10451085  RH  074%=      5-min Rain = 0
KPA1 100412Z 30001KT M04/M08 A3037 RMK A01 T10431083  RH  073%=      5-min Rain = 0
KPA1 100413Z 29002KT M04/M08 A3037 RMK A01 T10411083  RH  073%=      5-min Rain = 0
KPA1 100414Z 29002KT M04/M08 A3037 RMK A01 T10401082  RH  072%=      5-min Rain = 0
KPA1 100415Z 29002KT M04/M08 A3037 RMK A01 T10381082  RH  072%=      5-min Rain = 0
KPA1 100416Z 29002KT M04/M08 A3037 RMK A01 T10371081  RH  071%=      5-min Rain = 0
KPA1 100417Z 29002KT M04/M08 A3037 RMK A01 T10351081  RH  071%=      5-min Rain = 0
KPA1 100418Z 28002KT M03/M08 A3037 RMK A01 T10331079  RH  070%=      5-min Rain = 0
KPA1 100419Z 28002KT M03/M08 A3037 RMK A01 T10311079  RH  069%=      5-min Rain = 0
KPA1 100420Z 28002KT M03/M08 A3037 RMK A01 T10291079  RH  069%=      5-min Rain = 0
KPA1 100421Z 28002KT M03/M08 A3037 RMK A01 T10281080  RH  068%=      5-min Rain = 0
KPA1 100422Z 28002KT M03/M08 A3037 RMK A01 T10271080  RH  067%=      5-min Rain = 0
KPA1 100423Z 28003KT M03/M08 A3037 RMK A01 T10271081  RH  066%=      5-min Rain = 0
KPA1 100424Z 27002KT M03/M08 A3037 RMK A01 T10261081  RH  066%=      5-min Rain = 0
KPA1 100425Z 27002KT M02/M08 A3037 RMK A01 T10241080  RH  066%=      5-min Rain = 0
KPA1 100426Z 27002KT M02/M08 A3037 RMK A01 T10231080  RH  065%=      5-min Rain = 0
KPA1 100427Z 26003KT M02/M08 A3037 RMK A01 T10231082  RH  064%=      5-min Rain = 0
KPA1 100428Z 25003KT M03/M09 A3037 RMK A01 T10281086  RH  064%=      5-min Rain = 0
KPA1 100429Z 25003KT M03/M09 A3037 RMK A01 T10321089  RH  065%=      5-min Rain = 0
KPA1 100430Z 25003KT M04/M09 A3037 RMK A01 T10381092  RH  066%=      5-min Rain = 0
KPA1 100431Z 25003KT M04/M09 A3037 RMK A01 T10421093  RH  068%=      5-min Rain = 0
KPA1 100432Z 24003KT M04/M09 A3037 RMK A01 T10441091  RH  070%=      5-min Rain = 0
KPA1 100433Z 24003KT M05/M09 A3037 RMK A01 T10461092  RH  070%=      5-min Rain = 0
KPA1 100434Z 24004KT M05/M10 A3036 RMK A01 T10501095  RH  071%=      5-min Rain = 0
KPA1 100435Z 24004KT M05/M10 A3036 RMK A01 T10521095  RH  072%=      5-min Rain = 0
KPA1 100436Z 25003KT M05/M09 A3036 RMK A01 T10531093  RH  074%=      5-min Rain = 0
KPA1 100437Z 25003KT M05/M09 A3036 RMK A01 T10541093  RH  074%=      5-min Rain = 0
KPA1 100438Z 25003KT M06/M10 A3036 RMK A01 T10571095  RH  074%=      5-min Rain = 0
KPA1 100439Z 25002KT M06/M09 A3036 RMK A01 T10581094  RH  076%=      5-min Rain = 0
KPA1 100440Z 25002KT M06/M09 A3036 RMK A01 T10571092  RH  076%=      5-min Rain = 0
KPA1 100441Z 25003KT M06/M09 A3036 RMK A01 T10551090  RH  077%=      5-min Rain = 0
KPA1 100442Z 24003KT M05/M09 A3036 RMK A01 T10541089  RH  077%=      5-min Rain = 0
KPA1 100443Z 23003KT M05/M09 A3036 RMK A01 T10541091  RH  075%=      5-min Rain = 0
KPA1 100444Z 23003KT M06/M09 A3036 RMK A01 T10561094  RH  075%=      5-min Rain = 0
KPA1 100445Z 23004KT M06/M10 A3036 RMK A01 T10591096  RH  075%=      5-min Rain = 0
KPA1 100446Z 23004KT M06/M10 A3036 RMK A01 T10621097  RH  076%=      5-min Rain = 0
KPA1 100447Z 23004KT M06/M10 A3036 RMK A01 T10641097  RH  077%=      5-min Rain = 0
KPA1 100448Z 23004KT M07/M10 A3036 RMK A01 T10651098  RH  077%=      5-min Rain = 0
KPA1 100449Z 23003KT M07/M10 A3036 RMK A01 T10661098  RH  078%=      5-min Rain = 0
KPA1 100450Z 23003KT M07/M10 A3036 RMK A01 T10661097  RH  079%=      5-min Rain = 0
KPA1 100451Z 24003KT M07/M10 A3036 RMK A01 T10661097  RH  079%=      5-min Rain = 0
KPA1 100452Z 24003KT M07/M10 A3036 RMK A01 T10671098  RH  078%=      5-min Rain = 0
KPA1 100453Z 24004KT M07/M10 A3036 RMK A01 T10681099  RH  078%=      5-min Rain = 0
KPA1 100454Z 24004KT M07/M10 A3036 RMK A01 T10691100  RH  078%=      5-min Rain = 0
KPA1 100455Z 25004KT M07/M10 A3036 RMK A01 T10701102  RH  078%=      5-min Rain = 0
KPA1 100456Z 25004KT M07/M10 A3036 RMK A01 T10721103  RH  078%=      5-min Rain = 0
KPA1 100457Z 25004KT M07/M10 A3036 RMK A01 T10731104  RH  079%=      5-min Rain = 0
KPA1 100458Z 25004KT M07/M10 A3036 RMK A01 T10741104  RH  079%=      5-min Rain = 0
KPA1 100459Z 25004KT M07/M10 A3036 RMK A01 T10741103  RH  080%=      5-min Rain = 0
KPA1 100500Z 26005KT M07/M10 A3036 RMK A01 T10741102  RH  080%=      5-min Rain = 0
KPA1 100501Z 25005KT M07/M10 A3036 RMK A01 T10741102  RH  081%=      5-min Rain = 0
KPA1 100502Z 25005KT M07/M10 A3036 RMK A01 T10741102  RH  081%=      5-min Rain = 0
KPA1 100503Z 25004KT M07/M10 A3036 RMK A01 T10741101  RH  081%=      5-min Rain = 0
KPA1 100504Z 25005KT M07/M10 A3036 RMK A01 T10741100  RH  082%=      5-min Rain = 0
KPA1 100505Z 25005KT M07/M10 A3036 RMK A01 T10741099  RH  082%=      5-min Rain = 0
KPA1 100506Z 25004KT M07/M10 A3036 RMK A01 T10731098  RH  082%=      5-min Rain = 0
KPA1 100507Z 25004KT M07/M10 A3036 RMK A01 T10721098  RH  082%=      5-min Rain = 0
KPA1 100508Z 25004KT M07/M10 A3036 RMK A01 T10721098  RH  081%=      5-min Rain = 0
KPA1 100509Z 26004KT M07/M10 A3036 RMK A01 T10701096  RH  082%=      5-min Rain = 0
KPA1 100510Z 26004KT M07/M09 A3036 RMK A01 T10671092  RH  083%=      5-min Rain = 0
KPA1 100511Z 26004KT M06/M09 A3036 RMK A01 T10631087  RH  083%=      5-min Rain = 0
KPA1 100512Z 26004KT M06/M08 A3036 RMK A01 T10601084  RH  083%=      5-min Rain = 0
KPA1 100513Z 26004KT M06/M08 A3036 RMK A01 T10571083  RH  082%=      5-min Rain = 0
KPA1 100514Z 26005KT M05/M08 A3036 RMK A01 T10531081  RH  081%=      5-min Rain = 0
KPA1 100515Z 25005KT M05/M08 A3036 RMK A01 T10501078  RH  080%=      5-min Rain = 0
KPA1 100516Z 25005KT M05/M08 A3036 RMK A01 T10461077  RH  079%=      5-min Rain = 0
KPA1 100517Z 25005KT M04/M08 A3036 RMK A01 T10441078  RH  077%=      5-min Rain = 0
KPA1 100518Z 25005KT M04/M08 A3036 RMK A01 T10431080  RH  075%=      5-min Rain = 0
KPA1 100519Z 25005KT M04/M08 A3036 RMK A01 T10431082  RH  074%=      5-min Rain = 0
KPA1 100520Z 25005KT M04/M08 A3036 RMK A01 T10431083  RH  073%=      5-min Rain = 0
KPA1 100521Z 25005KT M04/M09 A3036 RMK A01 T10441085  RH  073%=      5-min Rain = 0
KPA1 100522Z 25005KT M04/M08 A3036 RMK A01 T10441084  RH  073%=      5-min Rain = 0
KPA1 100523Z 25005KT M04/M08 A3036 RMK A01 T10441084  RH  073%=      5-min Rain = 0
KPA1 100524Z 25004KT M04/M08 A3036 RMK A01 T10441084  RH  073%=      5-min Rain = 0
KPA1 100525Z 25004KT M04/M08 A3036 RMK A01 T10431084  RH  073%=      5-min Rain = 0
KPA1 100526Z 25004KT M04/M08 A3036 RMK A01 T10421083  RH  073%=      5-min Rain = 0
KPA1 100527Z 25004KT M04/M08 A3036 RMK A01 T10411084  RH  072%=      5-min Rain = 0
KPA1 100528Z 25004KT M04/M08 A3036 RMK A01 T10411084  RH  072%=      5-min Rain = 0
KPA1 100529Z 24004KT M04/M08 A3036 RMK A01 T10411084  RH  072%=      5-min Rain = 0
KPA1 100530Z 24004KT M04/M09 A3036 RMK A01 T10411085  RH  071%=      5-min Rain = 0
KPA1 100531Z 24004KT M04/M09 A3036 RMK A01 T10431088  RH  071%=      5-min Rain = 0
KPA1 100532Z 24004KT M05/M09 A3036 RMK A01 T10461091  RH  071%=      5-min Rain = 0
KPA1 100533Z 24003KT M05/M09 A3036 RMK A01 T10491093  RH  071%=      5-min Rain = 0
KPA1 100534Z 23003KT M05/M09 A3036 RMK A01 T10511094  RH  072%=      5-min Rain = 0
KPA1 100535Z 23002KT M05/M10 A3036 RMK A01 T10541095  RH  073%=      5-min Rain = 0
KPA1 100536Z 23002KT M06/M10 A3036 RMK A01 T10561095  RH  074%=      5-min Rain = 0
KPA1 100537Z 23002KT M06/M09 A3035 RMK A01 T10571094  RH  075%=      5-min Rain = 0
KPA1 100538Z 22002KT M06/M09 A3035 RMK A01 T10581093  RH  076%=      5-min Rain = 0
KPA1 100539Z 22003KT M06/M09 A3035 RMK A01 T10581092  RH  077%=      5-min Rain = 0
KPA1 100540Z 23003KT M06/M09 A3035 RMK A01 T10571091  RH  077%=      5-min Rain = 0
KPA1 100541Z 22003KT M06/M09 A3035 RMK A01 T10571091  RH  077%=      5-min Rain = 0
KPA1 100542Z 22003KT M06/M09 A3035 RMK A01 T10561091  RH  076%=      5-min Rain = 0
KPA1 100543Z 22003KT M06/M09 A3035 RMK A01 T10561091  RH  076%=      5-min Rain = 0
KPA1 100544Z 22003KT M06/M09 A3035 RMK A01 T10561092  RH  076%=      5-min Rain = 0
KPA1 100545Z 23004KT M06/M09 A3035 RMK A01 T10551092  RH  075%=      5-min Rain = 0
KPA1 100546Z 23004KT M06/M09 A3035 RMK A01 T10551092  RH  075%=      5-min Rain = 0
KPA1 100547Z 23004KT M06/M09 A3035 RMK A01 T10551093  RH  075%=      5-min Rain = 0
KPA1 100548Z 23004KT M06/M09 A3035 RMK A01 T10561093  RH  075%=      5-min Rain = 0
KPA1 100549Z 23004KT M06/M09 A3035 RMK A01 T10551093  RH  075%=      5-min Rain = 0
KPA1 100550Z 22004KT M06/M09 A3035 RMK A01 T10561093  RH  075%=      5-min Rain = 0
KPA1 100551Z 23004KT M06/M09 A3035 RMK A01 T10561094  RH  075%=      5-min Rain = 0
KPA1 100552Z 24004KT M06/M09 A3035 RMK A01 T10561094  RH  075%=      5-min Rain = 0
KPA1 100553Z 24003KT M06/M09 A3035 RMK A01 T10561094  RH  075%=      5-min Rain = 0
KPA1 100554Z 23002KT M06/M09 A3035 RMK A01 T10561093  RH  075%=      5-min Rain = 0
KPA1 100555Z 24003KT M06/M09 A3035 RMK A01 T10571094  RH  075%=      5-min Rain = 0
KPA1 100556Z 24003KT M06/M10 A3035 RMK A01 T10581095  RH  075%=      5-min Rain = 0
KPA1 100557Z 25004KT M06/M10 A3035 RMK A01 T10591095  RH  075%=      5-min Rain = 0
KPA1 100558Z 25004KT M06/M10 A3035 RMK A01 T10591095  RH  075%=      5-min Rain = 0
KPA1 100559Z 24004KT M06/M10 A3035 RMK A01 T10591095  RH  076%=      5-min Rain = 0

Page generated in 0.1961 seconds.